Time,TemperatureF,DewpointF,PressureIn,WindDirection,WindDirectionDegrees,WindSpeedMPH,WindSpeedGustMPH,Humidity,HourlyPrecipIn,Conditions,Clouds,dailyrainin,SoftwareType,DateUTC
2013-02-06 00:01:00,32.3,27.7,30.04,NNW,348,10.0,10.0,83,0.00,,,0.00,Wunderground v.1.15,2013-02-06 06:01:00,
2013-02-06 00:02:00,32.3,27.7,30.04,NNW,333,9.0,10.0,83,0.00,,,0.00,Wunderground v.1.15,2013-02-06 06:02:00,
2013-02-06 00:03:00,32.3,28.0,30.04,NNW,334,9.0,10.0,84,0.00,,,0.00,Wunderground v.1.15,2013-02-06 06:03:00,
2013-02-06 00:04:00,32.3,28.0,30.04,NNW,334,9.0,10.0,84,0.00,,,0.00,Wunderground v.1.15,2013-02-06 06:04:00,
2013-02-06 00:09:00,32.1,27.8,30.04,NNW,338,7.0,10.0,84,0.00,,,0.00,Wunderground v.1.15,2013-02-06 06:09:00,
2013-02-06 00:11:00,32.1,27.5,30.04,NNW,335,7.0,7.0,83,0.00,,,0.00,Wunderground v.1.15,2013-02-06 06:11:00,
2013-02-06 00:13:00,32.1,27.5,30.04,NNW,333,7.0,8.0,83,0.00,,,0.00,Wunderground v.1.15,2013-02-06 06:13:00,
2013-02-06 00:15:00,32.1,27.5,30.04,NNW,334,8.0,9.0,83,0.00,,,0.00,Wunderground v.1.15,2013-02-06 06:15:00,
2013-02-06 00:17:00,32.2,27.9,30.04,NNW,336,8.0,9.0,84,0.00,,,0.00,Wunderground v.1.15,2013-02-06 06:17:00,
2013-02-06 00:22:00,32.1,27.5,30.04,NNW,338,8.0,9.0,83,0.00,,,0.00,Wunderground v.1.15,2013-02-06 06:22:00,
2013-02-06 00:23:00,32.1,27.5,30.04,NNW,338,8.0,9.0,83,0.00,,,0.00,Wunderground v.1.15,2013-02-06 06:23:00,
2013-02-06 00:24:00,32.1,27.5,30.04,NNW,331,8.0,9.0,83,0.00,,,0.00,Wunderground v.1.15,2013-02-06 06:24:00,
2013-02-06 00:26:00,32.1,27.5,30.04,NNW,333,8.0,9.0,83,0.00,,,0.00,Wunderground v.1.15,2013-02-06 06:26:00,
2013-02-06 00:29:00,32.1,27.5,30.04,NNW,333,8.0,9.0,83,0.00,,,0.00,Wunderground v.1.15,2013-02-06 06:29:00,
2013-02-06 00:34:00,32.0,27.7,30.04,NNW,333,7.0,7.0,84,0.00,,,0.00,Wunderground v.1.15,2013-02-06 06:34:00,
2013-02-06 00:35:00,32.0,27.7,30.04,NNW,333,6.0,7.0,84,0.00,,,0.00,Wunderground v.1.15,2013-02-06 06:35:00,
2013-02-06 00:37:00,31.9,27.6,30.04,NNW,333,6.0,7.0,84,0.00,,,0.00,Wunderground v.1.15,2013-02-06 06:37:00,
2013-02-06 00:42:00,31.9,27.6,30.04,NNW,333,6.0,6.0,84,0.00,,,0.00,Wunderground v.1.15,2013-02-06 06:42:00,
2013-02-06 00:43:00,31.9,27.6,30.04,NNW,334,6.0,7.0,84,0.00,,,0.00,Wunderground v.1.15,2013-02-06 06:43:00,
2013-02-06 00:45:00,31.8,27.5,30.05,NNW,334,6.0,7.0,84,0.00,,,0.00,Wunderground v.1.15,2013-02-06 06:45:00,
2013-02-06 00:46:00,31.8,27.5,30.05,NNW,334,6.0,7.0,84,0.00,,,0.00,Wunderground v.1.15,2013-02-06 06:46:00,
2013-02-06 00:48:00,31.8,27.5,30.05,NNW,335,6.0,7.0,84,0.00,,,0.00,Wunderground v.1.15,2013-02-06 06:48:00,
2013-02-06 00:50:00,31.7,27.4,30.05,NNW,335,6.0,6.0,84,0.00,,,0.00,Wunderground v.1.15,2013-02-06 06:50:00,
2013-02-06 00:52:00,31.7,27.4,30.04,NNW,331,6.0,9.0,84,0.00,,,0.00,Wunderground v.1.15,2013-02-06 06:52:00,
2013-02-06 00:53:00,31.7,27.4,30.04,NNW,331,6.0,9.0,84,0.00,,,0.00,Wunderground v.1.15,2013-02-06 06:53:00,
2013-02-06 00:55:00,31.7,27.4,30.04,NNW,330,6.0,9.0,84,0.00,,,0.00,Wunderground v.1.15,2013-02-06 06:55:00,
2013-02-06 00:59:00,31.7,27.7,30.05,NNW,330,6.0,9.0,85,0.00,,,0.00,Wunderground v.1.15,2013-02-06 06:59:00,
2013-02-06 01:00:00,31.6,27.6,30.04,NNW,330,5.0,5.0,85,0.00,,,0.00,Wunderground v.1.15,2013-02-06 07:00:00,
2013-02-06 01:03:00,31.6,27.6,30.04,NNW,330,5.0,5.0,85,0.00,,,0.00,Wunderground v.1.15,2013-02-06 07:03:00,
2013-02-06 01:05:00,31.5,27.5,30.04,NNW,331,4.0,5.0,85,0.00,,,0.00,Wunderground v.1.15,2013-02-06 07:05:00,
2013-02-06 01:07:00,31.5,27.5,30.04,NNW,331,4.0,5.0,85,0.00,,,0.00,Wunderground v.1.15,2013-02-06 07:07:00,
2013-02-06 01:09:00,31.5,27.5,30.04,NNW,331,4.0,5.0,85,0.00,,,0.00,Wunderground v.1.15,2013-02-06 07:09:00,
2013-02-06 01:10:00,31.5,27.5,30.04,NNW,331,4.0,4.0,85,0.00,,,0.00,Wunderground v.1.15,2013-02-06 07:10:00,
2013-02-06 01:13:00,31.5,27.5,30.04,NNW,331,4.0,5.0,85,0.00,,,0.00,Wunderground v.1.15,2013-02-06 07:13:00,
2013-02-06 01:16:00,31.5,27.5,30.04,NNW,330,4.0,5.0,85,0.00,,,0.00,Wunderground v.1.15,2013-02-06 07:16:00,
2013-02-06 01:18:00,31.5,27.5,30.04,NNW,331,4.0,5.0,85,0.00,,,0.00,Wunderground v.1.15,2013-02-06 07:18:00,
2013-02-06 01:19:00,31.5,27.5,30.04,NNW,331,4.0,5.0,85,0.00,,,0.00,Wunderground v.1.15,2013-02-06 07:19:00,
2013-02-06 01:20:00,31.4,27.4,30.04,NNW,331,5.0,6.0,85,0.00,,,0.00,Wunderground v.1.15,2013-02-06 07:20:00,
2013-02-06 01:24:00,31.4,27.4,30.04,NNW,331,5.0,6.0,85,0.00,,,0.00,Wunderground v.1.15,2013-02-06 07:24:00,
2013-02-06 01:26:00,31.3,27.3,30.04,NNW,330,5.0,6.0,85,0.00,,,0.00,Wunderground v.1.15,2013-02-06 07:26:00,
2013-02-06 01:28:00,31.3,27.3,30.04,NNW,331,5.0,6.0,85,0.00,,,0.00,Wunderground v.1.15,2013-02-06 07:28:00,
2013-02-06 01:31:00,31.2,27.2,30.05,NNW,331,4.0,5.0,85,0.00,,,0.00,Wunderground v.1.15,2013-02-06 07:31:00,
2013-02-06 01:33:00,31.2,27.2,30.05,NNW,331,4.0,5.0,85,0.00,,,0.00,Wunderground v.1.15,2013-02-06 07:33:00,
2013-02-06 01:34:00,31.1,27.1,30.05,NNW,331,4.0,5.0,85,0.00,,,0.00,Wunderground v.1.15,2013-02-06 07:34:00,
2013-02-06 01:37:00,31.1,27.1,30.05,NNW,331,4.0,5.0,85,0.00,,,0.00,Wunderground v.1.15,2013-02-06 07:37:00,
2013-02-06 01:38:00,31.1,27.1,30.05,NNW,330,4.0,5.0,85,0.00,,,0.00,Wunderground v.1.15,2013-02-06 07:38:00,
2013-02-06 01:43:00,31.1,27.1,30.06,NNW,330,4.0,4.0,85,0.00,,,0.00,Wunderground v.1.15,2013-02-06 07:43:00,
2013-02-06 01:44:00,31.1,27.1,30.06,NNW,331,4.0,4.0,85,0.00,,,0.00,Wunderground v.1.15,2013-02-06 07:44:00,
2013-02-06 01:46:00,31.0,27.0,30.06,NNW,331,4.0,4.0,85,0.00,,,0.00,Wunderground v.1.15,2013-02-06 07:46:00,
2013-02-06 01:48:00,31.0,27.3,30.06,NNW,330,4.0,4.0,86,0.00,,,0.00,Wunderground v.1.15,2013-02-06 07:48:00,
2013-02-06 01:51:00,30.9,27.2,30.06,NNW,330,4.0,4.0,86,0.00,,,0.00,Wunderground v.1.15,2013-02-06 07:51:00,
2013-02-06 01:54:00,30.9,27.5,30.06,NNW,330,4.0,4.0,87,0.00,,,0.00,Wunderground v.1.15,2013-02-06 07:54:00,
2013-02-06 01:55:00,30.9,27.5,30.06,NNW,331,4.0,4.0,87,0.00,,,0.00,Wunderground v.1.15,2013-02-06 07:55:00,
2013-02-06 01:56:00,30.9,27.5,30.06,NNW,330,4.0,4.0,87,0.00,,,0.00,Wunderground v.1.15,2013-02-06 07:56:00,
2013-02-06 02:01:00,30.7,27.3,30.07,NNW,331,4.0,4.0,87,0.00,,,0.00,Wunderground v.1.15,2013-02-06 08:01:00,
2013-02-06 02:02:00,30.7,27.3,30.06,NNW,330,3.0,4.0,87,0.00,,,0.00,Wunderground v.1.15,2013-02-06 08:02:00,
2013-02-06 02:03:00,30.7,27.3,30.07,NNW,330,3.0,4.0,87,0.00,,,0.00,Wunderground v.1.15,2013-02-06 08:03:00,
2013-02-06 02:06:00,30.6,27.2,30.07,NNW,331,3.0,4.0,87,0.00,,,0.00,Wunderground v.1.15,2013-02-06 08:06:00,
2013-02-06 02:07:00,30.6,27.2,30.07,NNW,330,2.0,4.0,87,0.00,,,0.00,Wunderground v.1.15,2013-02-06 08:07:00,
2013-02-06 02:08:00,30.6,27.2,30.07,NNW,330,2.0,4.0,87,0.00,,,0.00,Wunderground v.1.15,2013-02-06 08:08:00,
2013-02-06 02:09:00,30.6,27.2,30.07,NNW,330,2.0,4.0,87,0.00,,,0.00,Wunderground v.1.15,2013-02-06 08:09:00,
2013-02-06 02:11:00,30.5,27.1,30.07,NNW,330,2.0,2.0,87,0.00,,,0.00,Wunderground v.1.15,2013-02-06 08:11:00,
2013-02-06 02:14:00,30.4,27.0,30.07,NNW,330,2.0,2.0,87,0.00,,,0.00,Wunderground v.1.15,2013-02-06 08:14:00,
2013-02-06 02:15:00,30.3,26.9,30.07,NNW,331,2.0,2.0,87,0.00,,,0.00,Wunderground v.1.15,2013-02-06 08:15:00,
2013-02-06 02:18:00,30.2,27.1,30.07,NNW,331,2.0,3.0,88,0.00,,,0.00,Wunderground v.1.15,2013-02-06 08:18:00,
2013-02-06 02:19:00,30.2,27.1,30.06,NNW,330,2.0,3.0,88,0.00,,,0.00,Wunderground v.1.15,2013-02-06 08:19:00,
2013-02-06 02:21:00,30.1,27.0,30.07,NNW,331,3.0,4.0,88,0.00,,,0.00,Wunderground v.1.15,2013-02-06 08:21:00,
2013-02-06 02:24:00,30.1,27.0,30.07,NNW,330,3.0,4.0,88,0.00,,,0.00,Wunderground v.1.15,2013-02-06 08:24:00,
2013-02-06 02:29:00,30.0,26.9,30.07,NNW,330,3.0,4.0,88,0.00,,,0.00,Wunderground v.1.15,2013-02-06 08:29:00,
2013-02-06 02:30:00,29.9,26.8,30.07,NNW,330,2.0,2.0,88,0.00,,,0.00,Wunderground v.1.15,2013-02-06 08:30:00,
2013-02-06 02:34:00,29.8,26.7,30.07,NNW,330,2.0,3.0,88,0.00,,,0.00,Wunderground v.1.15,2013-02-06 08:34:00,
2013-02-06 02:35:00,29.7,26.6,30.07,NNW,330,2.0,3.0,88,0.00,,,0.00,Wunderground v.1.15,2013-02-06 08:35:00,
2013-02-06 02:38:00,29.7,26.6,30.07,NNW,330,3.0,4.0,88,0.00,,,0.00,Wunderground v.1.15,2013-02-06 08:38:00,
2013-02-06 02:41:00,29.6,26.8,30.07,NNW,331,3.0,3.0,89,0.00,,,0.00,Wunderground v.1.15,2013-02-06 08:41:00,
2013-02-06 02:44:00,29.5,26.7,30.07,NNW,330,3.0,3.0,89,0.00,,,0.00,Wunderground v.1.15,2013-02-06 08:44:00,
2013-02-06 02:46:00,29.4,26.6,30.07,NNW,331,2.0,3.0,89,0.00,,,0.00,Wunderground v.1.15,2013-02-06 08:46:00,
2013-02-06 02:48:00,29.4,26.6,30.07,NNW,330,2.0,3.0,89,0.00,,,0.00,Wunderground v.1.15,2013-02-06 08:48:00,
2013-02-06 02:51:00,29.4,26.6,30.07,NNW,330,3.0,4.0,89,0.00,,,0.00,Wunderground v.1.15,2013-02-06 08:51:00,
2013-02-06 02:54:00,29.4,26.6,30.07,NNW,330,3.0,4.0,89,0.00,,,0.00,Wunderground v.1.15,2013-02-06 08:54:00,
2013-02-06 02:55:00,29.4,26.6,30.06,NNW,330,3.0,4.0,89,0.00,,,0.00,Wunderground v.1.15,2013-02-06 08:55:00,
2013-02-06 02:57:00,29.4,26.6,30.06,NNW,330,3.0,4.0,89,0.00,,,0.00,Wunderground v.1.15,2013-02-06 08:57:00,
2013-02-06 02:58:00,29.4,26.6,30.06,NNW,330,3.0,4.0,89,0.00,,,0.00,Wunderground v.1.15,2013-02-06 08:58:00,
2013-02-06 03:01:00,29.3,26.5,30.07,NNW,330,3.0,3.0,89,0.00,,,0.00,Wunderground v.1.15,2013-02-06 09:01:00,
2013-02-06 03:03:00,29.3,26.5,30.07,NNW,330,3.0,3.0,89,0.00,,,0.00,Wunderground v.1.15,2013-02-06 09:03:00,
2013-02-06 03:05:00,29.4,26.6,30.07,NNW,330,3.0,3.0,89,0.00,,,0.00,Wunderground v.1.15,2013-02-06 09:05:00,
2013-02-06 03:07:00,29.4,26.6,30.07,NNW,331,3.0,3.0,89,0.00,,,0.00,Wunderground v.1.15,2013-02-06 09:07:00,
2013-02-06 03:08:00,29.4,26.6,30.07,NNW,330,3.0,3.0,89,0.00,,,0.00,Wunderground v.1.15,2013-02-06 09:08:00,
2013-02-06 03:12:00,29.5,26.7,30.06,NNW,330,2.0,2.0,89,0.00,,,0.00,Wunderground v.1.15,2013-02-06 09:12:00,
2013-02-06 03:13:00,29.5,26.7,30.06,NNW,330,2.0,2.0,89,0.00,,,0.00,Wunderground v.1.15,2013-02-06 09:13:00,
2013-02-06 03:15:00,29.6,26.8,30.06,NNW,330,2.0,3.0,89,0.00,,,0.00,Wunderground v.1.15,2013-02-06 09:15:00,
2013-02-06 03:19:00,29.6,26.5,30.07,NNW,330,2.0,3.0,88,0.00,,,0.00,Wunderground v.1.15,2013-02-06 09:19:00,
2013-02-06 03:21:00,29.6,26.5,30.07,NNW,330,3.0,3.0,88,0.00,,,0.00,Wunderground v.1.15,2013-02-06 09:21:00,
2013-02-06 03:22:00,29.6,26.5,30.07,NNW,331,3.0,3.0,88,0.00,,,0.00,Wunderground v.1.15,2013-02-06 09:22:00,
2013-02-06 03:24:00,29.6,26.5,30.07,NNW,331,3.0,4.0,88,0.00,,,0.00,Wunderground v.1.15,2013-02-06 09:24:00,
2013-02-06 03:29:00,29.4,26.0,30.07,NNW,331,3.0,4.0,87,0.00,,,0.00,Wunderground v.1.15,2013-02-06 09:29:00,
2013-02-06 03:31:00,29.4,26.3,30.07,NNW,331,3.0,3.0,88,0.00,,,0.00,Wunderground v.1.15,2013-02-06 09:31:00,
2013-02-06 03:32:00,29.4,26.3,30.07,NNW,330,3.0,3.0,88,0.00,,,0.00,Wunderground v.1.15,2013-02-06 09:32:00,
2013-02-06 03:35:00,29.2,26.1,30.07,NNW,331,3.0,3.0,88,0.00,,,0.00,Wunderground v.1.15,2013-02-06 09:35:00,
2013-02-06 03:38:00,29.2,26.1,30.07,NNW,331,3.0,4.0,88,0.00,,,0.00,Wunderground v.1.15,2013-02-06 09:38:00,
2013-02-06 03:39:00,29.2,26.1,30.07,NNW,331,3.0,4.0,88,0.00,,,0.00,Wunderground v.1.15,2013-02-06 09:39:00,
2013-02-06 03:41:00,29.2,26.1,30.07,NNW,330,3.0,3.0,88,0.00,,,0.00,Wunderground v.1.15,2013-02-06 09:41:00,
2013-02-06 03:42:00,29.1,26.0,30.07,NNW,330,3.0,3.0,88,0.00,,,0.00,Wunderground v.1.15,2013-02-06 09:42:00,
2013-02-06 03:45:00,29.1,26.0,30.07,NNW,331,3.0,3.0,88,0.00,,,0.00,Wunderground v.1.15,2013-02-06 09:45:00,
2013-02-06 03:48:00,29.0,25.9,30.07,NNW,331,3.0,3.0,88,0.00,,,0.00,Wunderground v.1.15,2013-02-06 09:48:00,
2013-02-06 03:49:00,29.0,25.9,30.07,NNW,330,3.0,3.0,88,0.00,,,0.00,Wunderground v.1.15,2013-02-06 09:49:00,
2013-02-06 03:51:00,28.9,25.8,30.08,NNW,331,3.0,3.0,88,0.00,,,0.00,Wunderground v.1.15,2013-02-06 09:51:00,
2013-02-06 03:53:00,28.8,25.7,30.08,NNW,330,3.0,3.0,88,0.00,,,0.00,Wunderground v.1.15,2013-02-06 09:53:00,
2013-02-06 03:54:00,28.8,25.7,30.08,NNW,331,2.0,3.0,88,0.00,,,0.00,Wunderground v.1.15,2013-02-06 09:54:00,
2013-02-06 03:58:00,28.7,25.6,30.08,NNW,331,2.0,3.0,88,0.00,,,0.00,Wunderground v.1.15,2013-02-06 09:58:00,
2013-02-06 03:59:00,28.7,25.6,30.08,NNW,330,2.0,3.0,88,0.00,,,0.00,Wunderground v.1.15,2013-02-06 09:59:00,
2013-02-06 04:02:00,28.7,25.6,30.08,NNW,330,2.0,2.0,88,0.00,,,0.00,Wunderground v.1.15,2013-02-06 10:02:00,
2013-02-06 04:04:00,28.6,25.5,30.08,NNW,331,2.0,2.0,88,0.00,,,0.00,Wunderground v.1.15,2013-02-06 10:04:00,
2013-02-06 04:05:00,28.6,25.5,30.08,NNW,331,1.0,2.0,88,0.00,,,0.00,Wunderground v.1.15,2013-02-06 10:05:00,
2013-02-06 04:09:00,28.6,25.5,30.07,NNW,331,2.0,3.0,88,0.00,,,0.00,Wunderground v.1.15,2013-02-06 10:09:00,
2013-02-06 04:10:00,28.5,25.4,30.08,NNW,330,2.0,2.0,88,0.00,,,0.00,Wunderground v.1.15,2013-02-06 10:10:00,
2013-02-06 04:12:00,28.5,25.4,30.08,NNW,330,2.0,3.0,88,0.00,,,0.00,Wunderground v.1.15,2013-02-06 10:12:00,
2013-02-06 04:15:00,28.4,25.3,30.08,NNW,330,2.0,3.0,88,0.00,,,0.00,Wunderground v.1.15,2013-02-06 10:15:00,
2013-02-06 04:17:00,28.4,25.3,30.08,NNW,330,2.0,3.0,88,0.00,,,0.00,Wunderground v.1.15,2013-02-06 10:17:00,
2013-02-06 04:20:00,28.3,25.2,30.08,NNW,331,2.0,3.0,88,0.00,,,0.00,Wunderground v.1.15,2013-02-06 10:20:00,
2013-02-06 04:21:00,28.3,25.2,30.08,NNW,330,2.0,3.0,88,0.00,,,0.00,Wunderground v.1.15,2013-02-06 10:21:00,
2013-02-06 04:23:00,28.2,25.1,30.08,NNW,330,2.0,3.0,88,0.00,,,0.00,Wunderground v.1.15,2013-02-06 10:23:00,
2013-02-06 04:26:00,28.1,25.0,30.08,NNW,330,2.0,3.0,88,0.00,,,0.00,Wunderground v.1.15,2013-02-06 10:26:00,
2013-02-06 04:27:00,28.1,25.0,30.08,NNW,331,2.0,3.0,88,0.00,,,0.00,Wunderground v.1.15,2013-02-06 10:27:00,
2013-02-06 04:29:00,28.0,24.9,30.08,NNW,330,3.0,3.0,88,0.00,,,0.00,Wunderground v.1.15,2013-02-06 10:29:00,
2013-02-06 04:30:00,28.0,24.9,30.08,NNW,331,3.0,3.0,88,0.00,,,0.00,Wunderground v.1.15,2013-02-06 10:30:00,
2013-02-06 04:34:00,27.8,24.7,30.08,NNW,331,2.0,3.0,88,0.00,,,0.00,Wunderground v.1.15,2013-02-06 10:34:00,
2013-02-06 04:35:00,27.8,24.7,30.08,NNW,331,2.0,3.0,88,0.00,,,0.00,Wunderground v.1.15,2013-02-06 10:35:00,
2013-02-06 04:36:00,27.8,24.7,30.08,NNW,331,2.0,3.0,88,0.00,,,0.00,Wunderground v.1.15,2013-02-06 10:36:00,
2013-02-06 04:41:00,27.6,24.8,30.08,NNW,331,2.0,2.0,89,0.00,,,0.00,Wunderground v.1.15,2013-02-06 10:41:00,
2013-02-06 04:42:00,27.6,24.8,30.08,NNW,331,2.0,2.0,89,0.00,,,0.00,Wunderground v.1.15,2013-02-06 10:42:00,
2013-02-06 04:44:00,27.6,24.8,30.09,NNW,330,2.0,2.0,89,0.00,,,0.00,Wunderground v.1.15,2013-02-06 10:44:00,
2013-02-06 04:47:00,27.5,24.7,30.09,NNW,330,1.0,2.0,89,0.00,,,0.00,Wunderground v.1.15,2013-02-06 10:47:00,
2013-02-06 04:49:00,27.5,24.7,30.09,NNW,330,1.0,2.0,89,0.00,,,0.00,Wunderground v.1.15,2013-02-06 10:49:00,
2013-02-06 04:51:00,27.5,24.7,30.09,NNW,331,1.0,2.0,89,0.00,,,0.00,Wunderground v.1.15,2013-02-06 10:51:00,
2013-02-06 04:52:00,27.4,24.6,30.09,NNW,330,1.0,2.0,89,0.00,,,0.00,Wunderground v.1.15,2013-02-06 10:52:00,
2013-02-06 04:55:00,27.3,24.5,30.09,NNW,330,1.0,2.0,89,0.00,,,0.00,Wunderground v.1.15,2013-02-06 10:55:00,
2013-02-06 04:58:00,27.3,24.5,30.09,NNW,330,2.0,3.0,89,0.00,,,0.00,Wunderground v.1.15,2013-02-06 10:58:00,
2013-02-06 04:59:00,27.3,24.5,30.09,NNW,331,2.0,3.0,89,0.00,,,0.00,Wunderground v.1.15,2013-02-06 10:59:00,
2013-02-06 05:00:00,27.2,24.7,30.09,NNW,331,2.0,2.0,90,0.00,,,0.00,Wunderground v.1.15,2013-02-06 11:00:00,
2013-02-06 05:02:00,27.2,24.7,30.09,NNW,331,2.0,3.0,90,0.00,,,0.00,Wunderground v.1.15,2013-02-06 11:02:00,
2013-02-06 05:03:00,27.3,24.8,30.09,NNW,330,2.0,3.0,90,0.00,,,0.00,Wunderground v.1.15,2013-02-06 11:03:00,
2013-02-06 05:05:00,27.3,24.8,30.09,NNW,330,2.0,3.0,90,0.00,,,0.00,Wunderground v.1.15,2013-02-06 11:05:00,
2013-02-06 05:06:00,27.4,24.9,30.09,NNW,331,2.0,3.0,90,0.00,,,0.00,Wunderground v.1.15,2013-02-06 11:06:00,
2013-02-06 05:09:00,27.4,24.9,30.09,NNW,331,2.0,3.0,90,0.00,,,0.00,Wunderground v.1.15,2013-02-06 11:09:00,
2013-02-06 05:12:00,27.5,25.0,30.09,NNW,330,2.0,2.0,90,0.00,,,0.00,Wunderground v.1.15,2013-02-06 11:12:00,
2013-02-06 05:13:00,27.5,25.0,30.09,NNW,331,2.0,2.0,90,0.00,,,0.00,Wunderground v.1.15,2013-02-06 11:13:00,
2013-02-06 05:15:00,27.6,25.1,30.09,NNW,331,2.0,2.0,90,0.00,,,0.00,Wunderground v.1.15,2013-02-06 11:15:00,
2013-02-06 05:19:00,27.7,25.2,30.09,NNW,331,2.0,3.0,90,0.00,,,0.00,Wunderground v.1.15,2013-02-06 11:19:00,
2013-02-06 05:20:00,27.8,25.2,30.09,NNW,331,2.0,2.0,90,0.00,,,0.00,Wunderground v.1.15,2013-02-06 11:20:00,
2013-02-06 05:21:00,27.8,25.2,30.09,NNW,331,2.0,2.0,90,0.00,,,0.00,Wunderground v.1.15,2013-02-06 11:21:00,
2013-02-06 05:27:00,27.8,25.0,30.09,NNW,331,2.0,3.0,89,0.00,,,0.00,Wunderground v.1.15,2013-02-06 11:27:00,
2013-02-06 05:28:00,27.8,25.0,30.09,NNW,331,2.0,3.0,89,0.00,,,0.00,Wunderground v.1.15,2013-02-06 11:28:00,
2013-02-06 05:34:00,27.6,24.8,30.09,NNW,331,3.0,3.0,89,0.00,,,0.00,Wunderground v.1.15,2013-02-06 11:34:00,
2013-02-06 05:35:00,27.6,24.8,30.10,NNW,331,3.0,3.0,89,0.00,,,0.00,Wunderground v.1.15,2013-02-06 11:35:00,
2013-02-06 05:37:00,27.6,24.8,30.10,NNW,331,3.0,3.0,89,0.00,,,0.00,Wunderground v.1.15,2013-02-06 11:37:00,
2013-02-06 05:39:00,27.6,24.8,30.10,NNW,331,2.0,3.0,89,0.00,,,0.00,Wunderground v.1.15,2013-02-06 11:39:00,
2013-02-06 05:40:00,27.6,24.8,30.10,NNW,331,2.0,2.0,89,0.00,,,0.00,Wunderground v.1.15,2013-02-06 11:40:00,
2013-02-06 05:42:00,27.6,24.8,30.09,NNW,331,2.0,2.0,89,0.00,,,0.00,Wunderground v.1.15,2013-02-06 11:42:00,
2013-02-06 05:48:00,27.4,24.6,30.09,NNW,331,2.0,3.0,89,0.00,,,0.00,Wunderground v.1.15,2013-02-06 11:48:00,
2013-02-06 05:49:00,27.4,24.9,30.10,NNW,331,2.0,3.0,90,0.00,,,0.00,Wunderground v.1.15,2013-02-06 11:49:00,
2013-02-06 05:50:00,27.4,24.9,30.09,NNW,331,2.0,3.0,90,0.00,,,0.00,Wunderground v.1.15,2013-02-06 11:50:00,
2013-02-06 05:53:00,27.4,24.9,30.10,NNW,331,2.0,3.0,90,0.00,,,0.00,Wunderground v.1.15,2013-02-06 11:53:00,
2013-02-06 05:55:00,27.4,24.6,30.10,NNW,331,3.0,3.0,89,0.00,,,0.00,Wunderground v.1.15,2013-02-06 11:55:00,
2013-02-06 05:59:00,27.3,24.5,30.10,NNW,331,3.0,3.0,89,0.00,,,0.00,Wunderground v.1.15,2013-02-06 11:59:00,
2013-02-06 06:01:00,27.3,24.5,30.11,NNW,331,3.0,3.0,89,0.00,,,0.00,Wunderground v.1.15,2013-02-06 12:01:00,
2013-02-06 06:02:00,27.2,24.4,30.10,NNW,331,3.0,4.0,89,0.00,,,0.00,Wunderground v.1.15,2013-02-06 12:02:00,
2013-02-06 06:06:00,27.2,24.4,30.10,NNW,331,3.0,4.0,89,0.00,,,0.00,Wunderground v.1.15,2013-02-06 12:06:00,
2013-02-06 06:07:00,27.1,24.3,30.10,NNW,331,3.0,4.0,89,0.00,,,0.00,Wunderground v.1.15,2013-02-06 12:07:00,
2013-02-06 06:09:00,27.1,24.6,30.10,NNW,331,3.0,4.0,90,0.00,,,0.00,Wunderground v.1.15,2013-02-06 12:09:00,
2013-02-06 06:10:00,27.1,24.6,30.11,NNW,331,3.0,3.0,90,0.00,,,0.00,Wunderground v.1.15,2013-02-06 12:10:00,
2013-02-06 06:15:00,27.2,24.7,30.10,NNW,331,3.0,4.0,90,0.00,,,0.00,Wunderground v.1.15,2013-02-06 12:15:00,
2013-02-06 06:16:00,27.2,24.7,30.10,NNW,331,3.0,4.0,90,0.00,,,0.00,Wunderground v.1.15,2013-02-06 12:16:00,
2013-02-06 06:17:00,27.2,24.7,30.11,NNW,331,4.0,4.0,90,0.00,,,0.00,Wunderground v.1.15,2013-02-06 12:17:00,
2013-02-06 06:18:00,27.2,24.7,30.11,NNW,331,3.0,4.0,90,0.00,,,0.00,Wunderground v.1.15,2013-02-06 12:18:00,
2013-02-06 06:21:00,27.1,24.6,30.11,NNW,331,3.0,3.0,90,0.00,,,0.00,Wunderground v.1.15,2013-02-06 12:21:00,
2013-02-06 06:23:00,27.0,24.5,30.11,NNW,331,3.0,3.0,90,0.00,,,0.00,Wunderground v.1.15,2013-02-06 12:23:00,
2013-02-06 06:24:00,27.1,24.6,30.10,NNW,331,3.0,3.0,90,0.00,,,0.00,Wunderground v.1.15,2013-02-06 12:24:00,
2013-02-06 06:28:00,27.0,24.5,30.11,NNW,331,3.0,4.0,90,0.00,,,0.00,Wunderground v.1.15,2013-02-06 12:28:00,
2013-02-06 06:30:00,27.0,24.7,30.11,NNW,331,3.0,4.0,91,0.00,,,0.00,Wunderground v.1.15,2013-02-06 12:30:00,
2013-02-06 06:32:00,27.0,24.7,30.11,NNW,331,3.0,5.0,91,0.00,,,0.00,Wunderground v.1.15,2013-02-06 12:32:00,
2013-02-06 06:33:00,27.0,24.7,30.11,NNW,331,4.0,5.0,91,0.00,,,0.00,Wunderground v.1.15,2013-02-06 12:33:00,
2013-02-06 06:35:00,27.0,24.7,30.11,NNW,331,4.0,5.0,91,0.00,,,0.00,Wunderground v.1.15,2013-02-06 12:35:00,
2013-02-06 06:40:00,27.0,24.7,30.11,NNW,331,5.0,5.0,91,0.00,,,0.00,Wunderground v.1.15,2013-02-06 12:40:00,
2013-02-06 06:41:00,27.0,24.7,30.11,NNW,331,5.0,5.0,91,0.00,,,0.00,Wunderground v.1.15,2013-02-06 12:41:00,
2013-02-06 06:42:00,27.0,24.7,30.11,NNW,331,5.0,6.0,91,0.00,,,0.00,Wunderground v.1.15,2013-02-06 12:42:00,
2013-02-06 06:44:00,27.0,24.7,30.12,NNW,331,5.0,7.0,91,0.00,,,0.00,Wunderground v.1.15,2013-02-06 12:44:00,
2013-02-06 06:46:00,27.1,25.1,30.11,NNW,331,5.0,7.0,92,0.00,,,0.00,Wunderground v.1.15,2013-02-06 12:46:00,
2013-02-06 06:49:00,27.1,24.8,30.11,NNW,331,6.0,7.0,91,0.00,,,0.00,Wunderground v.1.15,2013-02-06 12:49:00,
2013-02-06 06:52:00,27.0,24.7,30.11,NNW,331,6.0,6.0,91,0.00,,,0.00,Wunderground v.1.15,2013-02-06 12:52:00,
2013-02-06 06:53:00,27.0,24.7,30.11,NNW,331,6.0,6.0,91,0.00,,,0.00,Wunderground v.1.15,2013-02-06 12:53:00,
2013-02-06 06:54:00,27.0,24.7,30.12,NNW,331,6.0,6.0,91,0.00,,,0.00,Wunderground v.1.15,2013-02-06 12:54:00,
2013-02-06 06:58:00,27.0,24.7,30.12,NNW,331,5.0,6.0,91,0.00,,,0.00,Wunderground v.1.15,2013-02-06 12:58:00,
2013-02-06 07:00:00,27.0,24.7,30.12,NNW,331,5.0,5.0,91,0.00,,,0.00,Wunderground v.1.15,2013-02-06 13:00:00,
2013-02-06 07:03:00,27.0,24.7,30.12,NNW,331,5.0,5.0,91,0.00,,,0.00,Wunderground v.1.15,2013-02-06 13:03:00,
2013-02-06 07:04:00,27.0,24.7,30.12,NNW,331,5.0,5.0,91,0.00,,,0.00,Wunderground v.1.15,2013-02-06 13:04:00,
2013-02-06 07:06:00,27.0,25.0,30.12,NNW,331,4.0,5.0,92,0.00,,,0.00,Wunderground v.1.15,2013-02-06 13:06:00,
2013-02-06 07:09:00,27.0,25.0,30.12,NNW,331,4.0,5.0,92,0.00,,,0.00,Wunderground v.1.15,2013-02-06 13:09:00,
2013-02-06 07:10:00,27.0,25.0,30.12,NNW,331,4.0,4.0,92,0.00,,,0.00,Wunderground v.1.15,2013-02-06 13:10:00,
2013-02-06 07:11:00,27.0,25.0,30.12,NNW,331,4.0,4.0,92,0.00,,,0.00,Wunderground v.1.15,2013-02-06 13:11:00,
2013-02-06 07:12:00,27.0,25.0,30.12,NNW,331,4.0,4.0,92,0.00,,,0.00,Wunderground v.1.15,2013-02-06 13:12:00,
2013-02-06 07:14:00,27.0,25.0,30.12,NNW,331,4.0,4.0,92,0.00,,,0.00,Wunderground v.1.15,2013-02-06 13:14:00,
2013-02-06 07:16:00,27.0,25.0,30.11,NNW,331,4.0,4.0,92,0.00,,,0.00,Wunderground v.1.15,2013-02-06 13:16:00,
2013-02-06 07:18:00,27.0,25.0,30.11,NNW,331,4.0,4.0,92,0.00,,,0.00,Wunderground v.1.15,2013-02-06 13:18:00,
2013-02-06 07:19:00,27.0,25.0,30.11,NNW,331,4.0,4.0,92,0.00,,,0.00,Wunderground v.1.15,2013-02-06 13:19:00,
2013-02-06 07:21:00,27.0,25.0,30.11,NNW,331,3.0,4.0,92,0.00,,,0.00,Wunderground v.1.15,2013-02-06 13:21:00,
2013-02-06 07:24:00,27.0,25.0,30.11,NNW,331,3.0,4.0,92,0.00,,,0.00,Wunderground v.1.15,2013-02-06 13:24:00,
2013-02-06 07:26:00,27.0,25.0,30.11,NNW,331,3.0,4.0,92,0.00,,,0.00,Wunderground v.1.15,2013-02-06 13:26:00,
2013-02-06 07:27:00,27.0,25.0,30.11,NNW,331,3.0,4.0,92,0.00,,,0.00,Wunderground v.1.15,2013-02-06 13:27:00,
2013-02-06 07:30:00,27.0,25.0,30.11,NNW,331,3.0,3.0,92,0.00,,,0.00,Wunderground v.1.15,2013-02-06 13:30:00,
2013-02-06 07:31:00,27.0,25.0,30.11,NNW,331,3.0,3.0,92,0.00,,,0.00,Wunderground v.1.15,2013-02-06 13:31:00,
2013-02-06 07:33:00,26.9,24.9,30.11,NNW,331,3.0,4.0,92,0.00,,,0.00,Wunderground v.1.15,2013-02-06 13:33:00,
2013-02-06 07:36:00,27.0,25.0,30.11,NNW,331,3.0,4.0,92,0.00,,,0.00,Wunderground v.1.15,2013-02-06 13:36:00,
2013-02-06 07:39:00,27.1,25.3,30.11,NNW,331,3.0,4.0,93,0.00,,,0.00,Wunderground v.1.15,2013-02-06 13:39:00,
2013-02-06 07:40:00,27.1,25.3,30.11,NNW,331,3.0,3.0,93,0.00,,,0.00,Wunderground v.1.15,2013-02-06 13:40:00,
2013-02-06 07:43:00,27.2,25.2,30.11,NNW,331,3.0,3.0,92,0.00,,,0.00,Wunderground v.1.15,2013-02-06 13:43:00,
2013-02-06 07:45:00,27.2,25.2,30.11,NNW,331,3.0,4.0,92,0.00,,,0.00,Wunderground v.1.15,2013-02-06 13:45:00,
2013-02-06 07:48:00,27.2,25.2,30.11,NNW,331,3.0,4.0,92,0.00,,,0.00,Wunderground v.1.15,2013-02-06 13:48:00,
2013-02-06 07:49:00,27.2,25.2,30.11,NNW,331,3.0,4.0,92,0.00,,,0.00,Wunderground v.1.15,2013-02-06 13:49:00,
2013-02-06 07:51:00,27.3,25.3,30.11,NNW,331,3.0,3.0,92,0.00,,,0.00,Wunderground v.1.15,2013-02-06 13:51:00,
2013-02-06 07:56:00,27.4,25.4,30.12,NNW,331,3.0,5.0,92,0.00,,,0.00,Wunderground v.1.15,2013-02-06 13:56:00,
2013-02-06 07:57:00,27.5,25.5,30.12,NNW,331,4.0,5.0,92,0.00,,,0.00,Wunderground v.1.15,2013-02-06 13:57:00,
2013-02-06 07:58:00,27.6,25.6,30.12,NNW,331,4.0,5.0,92,0.00,,,0.00,Wunderground v.1.15,2013-02-06 13:58:00,
2013-02-06 08:02:00,27.8,25.8,30.12,NNW,331,4.0,4.0,92,0.00,,,0.00,Wunderground v.1.15,2013-02-06 14:02:00,
2013-02-06 08:03:00,27.9,25.9,30.12,NNW,331,4.0,5.0,92,0.00,,,0.00,Wunderground v.1.15,2013-02-06 14:03:00,
2013-02-06 08:05:00,28.1,26.1,30.13,NNW,331,4.0,5.0,92,0.00,,,0.00,Wunderground v.1.15,2013-02-06 14:05:00,
2013-02-06 08:08:00,28.3,26.3,30.13,NNW,331,4.0,5.0,92,0.00,,,0.00,Wunderground v.1.15,2013-02-06 14:08:00,
2013-02-06 08:10:00,28.5,26.5,30.13,NNW,331,5.0,5.0,92,0.00,,,0.00,Wunderground v.1.15,2013-02-06 14:10:00,
2013-02-06 08:11:00,28.5,26.5,30.13,NNW,331,5.0,5.0,92,0.00,,,0.00,Wunderground v.1.15,2013-02-06 14:11:00,
2013-02-06 08:13:00,28.6,26.6,30.13,NNW,331,5.0,6.0,92,0.00,,,0.00,Wunderground v.1.15,2013-02-06 14:13:00,
2013-02-06 08:14:00,28.8,26.8,30.13,NNW,331,5.0,6.0,92,0.00,,,0.00,Wunderground v.1.15,2013-02-06 14:14:00,
2013-02-06 08:16:00,28.9,26.9,30.13,NNW,331,5.0,6.0,92,0.00,,,0.00,Wunderground v.1.15,2013-02-06 14:16:00,
2013-02-06 08:17:00,29.0,27.0,30.13,NNW,331,5.0,6.0,92,0.00,,,0.00,Wunderground v.1.15,2013-02-06 14:17:00,
2013-02-06 08:19:00,29.1,26.8,30.13,NNW,331,5.0,7.0,91,0.00,,,0.00,Wunderground v.1.15,2013-02-06 14:19:00,
2013-02-06 08:22:00,29.3,27.0,30.13,NNW,331,6.0,6.0,91,0.00,,,0.00,Wunderground v.1.15,2013-02-06 14:22:00,
2013-02-06 08:25:00,29.4,27.1,30.13,South,170,5.0,7.0,91,0.00,,,0.00,Wunderground v.1.15,2013-02-06 14:25:00,
2013-02-06 08:26:00,29.4,26.8,30.13,SSE,164,6.0,7.0,90,0.00,,,0.00,Wunderground v.1.15,2013-02-06 14:26:00,
2013-02-06 08:27:00,29.5,27.2,30.13,SSE,163,6.0,7.0,91,0.00,,,0.00,Wunderground v.1.15,2013-02-06 14:27:00,
2013-02-06 08:30:00,29.7,27.4,30.13,SSE,155,6.0,7.0,91,0.00,,,0.00,Wunderground v.1.15,2013-02-06 14:30:00,
2013-02-06 08:33:00,29.8,27.2,30.13,SSE,156,6.0,9.0,90,0.00,,,0.00,Wunderground v.1.15,2013-02-06 14:33:00,
2013-02-06 08:37:00,29.9,27.3,30.13,SSE,156,7.0,9.0,90,0.00,,,0.00,Wunderground v.1.15,2013-02-06 14:37:00,
2013-02-06 08:39:00,29.9,27.3,30.13,SSE,156,7.0,9.0,90,0.00,,,0.00,Wunderground v.1.15,2013-02-06 14:39:00,
2013-02-06 08:41:00,30.0,27.4,30.13,SSE,156,7.0,8.0,90,0.00,,,0.00,Wunderground v.1.15,2013-02-06 14:41:00,
2013-02-06 08:45:00,30.2,27.6,30.13,SSE,157,7.0,9.0,90,0.00,,,0.00,Wunderground v.1.15,2013-02-06 14:45:00,
2013-02-06 08:46:00,30.3,27.7,30.12,SSE,157,7.0,9.0,90,0.00,,,0.00,Wunderground v.1.15,2013-02-06 14:46:00,
2013-02-06 08:48:00,30.3,27.7,30.12,SSE,165,7.0,9.0,90,0.00,,,0.00,Wunderground v.1.15,2013-02-06 14:48:00,
2013-02-06 08:50:00,30.4,27.8,30.12,SSE,158,7.0,10.0,90,0.00,,,0.00,Wunderground v.1.15,2013-02-06 14:50:00,
2013-02-06 08:51:00,30.5,27.9,30.12,SSE,157,7.0,10.0,90,0.00,,,0.00,Wunderground v.1.15,2013-02-06 14:51:00,
2013-02-06 08:52:00,30.5,27.9,30.12,SSE,157,7.0,10.0,90,0.00,,,0.00,Wunderground v.1.15,2013-02-06 14:52:00,
2013-02-06 08:55:00,30.6,28.0,30.12,SSE,157,7.0,10.0,90,0.00,,,0.00,Wunderground v.1.15,2013-02-06 14:55:00,
2013-02-06 08:56:00,30.7,28.1,30.12,SSE,157,7.0,10.0,90,0.00,,,0.00,Wunderground v.1.15,2013-02-06 14:56:00,
2013-02-06 08:57:00,30.7,28.4,30.12,SSE,157,7.0,10.0,91,0.00,,,0.00,Wunderground v.1.15,2013-02-06 14:57:00,
2013-02-06 08:59:00,30.9,28.6,30.12,SSE,156,7.0,10.0,91,0.00,,,0.00,Wunderground v.1.15,2013-02-06 14:59:00,
2013-02-06 09:02:00,31.1,28.5,30.12,SSE,156,6.0,7.0,90,0.00,,,0.00,Wunderground v.1.15,2013-02-06 15:02:00,
2013-02-06 09:03:00,31.2,28.6,30.12,SSE,156,6.0,7.0,90,0.00,,,0.00,Wunderground v.1.15,2013-02-06 15:03:00,
2013-02-06 09:07:00,31.4,28.8,30.12,SSE,155,6.0,9.0,90,0.00,,,0.00,Wunderground v.1.15,2013-02-06 15:07:00,
2013-02-06 09:08:00,31.4,28.5,30.12,SSE,153,7.0,9.0,89,0.00,,,0.00,Wunderground v.1.15,2013-02-06 15:08:00,
2013-02-06 09:10:00,31.4,28.5,30.12,SSE,154,7.0,9.0,89,0.00,,,0.00,Wunderground v.1.15,2013-02-06 15:10:00,
2013-02-06 09:11:00,31.5,28.6,30.11,SSE,154,7.0,9.0,89,0.00,,,0.00,Wunderground v.1.15,2013-02-06 15:11:00,
2013-02-06 09:12:00,31.5,28.6,30.11,SSE,154,7.0,9.0,89,0.00,,,0.00,Wunderground v.1.15,2013-02-06 15:12:00,
2013-02-06 09:16:00,31.7,28.8,30.11,SSE,152,7.0,9.0,89,0.00,,,0.00,Wunderground v.1.15,2013-02-06 15:16:00,
2013-02-06 09:18:00,31.9,29.0,30.11,SSE,152,7.0,10.0,89,0.00,,,0.00,Wunderground v.1.15,2013-02-06 15:18:00,
2013-02-06 09:20:00,32.0,28.8,30.11,SSE,154,7.0,7.0,88,0.00,,,0.00,Wunderground v.1.15,2013-02-06 15:20:00,
2013-02-06 09:21:00,32.0,28.8,30.12,SSE,153,8.0,10.0,88,0.00,,,0.00,Wunderground v.1.15,2013-02-06 15:21:00,
2013-02-06 09:24:00,32.1,28.9,30.12,SE,142,8.0,10.0,88,0.00,,,0.00,Wunderground v.1.15,2013-02-06 15:24:00,
2013-02-06 09:25:00,32.2,29.0,30.11,SE,144,8.0,10.0,88,0.00,,,0.00,Wunderground v.1.15,2013-02-06 15:25:00,
2013-02-06 09:26:00,32.2,29.0,30.11,SE,144,8.0,10.0,88,0.00,,,0.00,Wunderground v.1.15,2013-02-06 15:26:00,
2013-02-06 09:31:00,32.7,29.5,30.12,SSE,151,7.0,7.0,88,0.00,,,0.00,Wunderground v.1.15,2013-02-06 15:31:00,
2013-02-06 09:32:00,32.8,29.6,30.12,SSE,153,7.0,7.0,88,0.00,,,0.00,Wunderground v.1.15,2013-02-06 15:32:00,
2013-02-06 09:33:00,32.8,29.4,30.12,SSE,150,7.0,9.0,87,0.00,,,0.00,Wunderground v.1.15,2013-02-06 15:33:00,
2013-02-06 09:35:00,33.0,29.6,30.12,SE,142,7.0,11.0,87,0.00,,,0.00,Wunderground v.1.15,2013-02-06 15:35:00,
2013-02-06 09:37:00,33.0,29.3,30.12,SSE,156,7.0,11.0,86,0.00,,,0.00,Wunderground v.1.15,2013-02-06 15:37:00,
2013-02-06 09:38:00,33.1,29.4,30.12,SSE,155,7.0,11.0,86,0.00,,,0.00,Wunderground v.1.15,2013-02-06 15:38:00,
2013-02-06 09:39:00,33.1,29.4,30.12,SSE,157,7.0,12.0,86,0.00,,,0.00,Wunderground v.1.15,2013-02-06 15:39:00,
2013-02-06 09:45:00,33.4,29.4,30.12,SSE,155,9.0,11.0,85,0.00,,,0.00,Wunderground v.1.15,2013-02-06 15:45:00,
2013-02-06 09:46:00,33.5,29.5,30.12,SSE,156,9.0,11.0,85,0.00,,,0.00,Wunderground v.1.15,2013-02-06 15:46:00,
2013-02-06 09:51:00,33.6,29.0,30.12,SSE,157,9.0,11.0,83,0.00,,,0.00,Wunderground v.1.15,2013-02-06 15:51:00,
2013-02-06 09:52:00,33.5,28.9,30.13,SSE,167,9.0,11.0,83,0.00,,,0.00,Wunderground v.1.15,2013-02-06 15:52:00,
2013-02-06 09:54:00,33.6,29.3,30.13,SSE,153,9.0,14.0,84,0.00,,,0.00,Wunderground v.1.15,2013-02-06 15:54:00,
2013-02-06 09:58:00,33.8,29.5,30.13,SSE,167,9.0,14.0,84,0.00,,,0.00,Wunderground v.1.15,2013-02-06 15:58:00,
2013-02-06 10:00:00,33.9,29.6,30.13,South,171,9.0,10.0,84,0.00,,,0.00,Wunderground v.1.15,2013-02-06 16:00:00,
2013-02-06 10:01:00,33.9,29.3,30.13,South,169,9.0,10.0,83,0.00,,,0.00,Wunderground v.1.15,2013-02-06 16:01:00,
2013-02-06 10:04:00,34.1,30.1,30.13,SSE,162,10.0,13.0,85,0.00,,,0.00,Wunderground v.1.15,2013-02-06 16:04:00,
2013-02-06 10:06:00,34.1,29.8,30.13,SSE,167,9.0,13.0,84,0.00,,,0.00,Wunderground v.1.15,2013-02-06 16:06:00,
2013-02-06 10:07:00,34.2,29.6,30.13,SSE,165,10.0,13.0,83,0.00,,,0.00,Wunderground v.1.15,2013-02-06 16:07:00,
2013-02-06 10:08:00,34.2,29.6,30.13,South,170,10.0,13.0,83,0.00,,,0.00,Wunderground v.1.15,2013-02-06 16:08:00,
2013-02-06 10:13:00,34.2,29.9,30.13,South,169,11.0,12.0,84,0.00,,,0.00,Wunderground v.1.15,2013-02-06 16:13:00,
2013-02-06 10:15:00,34.4,30.4,30.12,South,182,11.0,12.0,85,0.00,,,0.00,Wunderground v.1.15,2013-02-06 16:15:00,
2013-02-06 10:16:00,34.4,30.1,30.13,South,175,11.0,12.0,84,0.00,,,0.00,Wunderground v.1.15,2013-02-06 16:16:00,
2013-02-06 10:18:00,34.5,30.2,30.13,South,179,10.0,12.0,84,0.00,,,0.00,Wunderground v.1.15,2013-02-06 16:18:00,
2013-02-06 10:19:00,34.6,30.3,30.13,South,169,10.0,12.0,84,0.00,,,0.00,Wunderground v.1.15,2013-02-06 16:19:00,
2013-02-06 10:20:00,34.6,30.0,30.12,South,170,10.0,10.0,83,0.00,,,0.00,Wunderground v.1.15,2013-02-06 16:20:00,
2013-02-06 10:24:00,34.7,30.4,30.12,SSE,163,10.0,15.0,84,0.00,,,0.00,Wunderground v.1.15,2013-02-06 16:24:00,
2013-02-06 10:26:00,34.8,30.2,30.12,South,179,10.0,15.0,83,0.00,,,0.00,Wunderground v.1.15,2013-02-06 16:26:00,
2013-02-06 10:27:00,34.8,30.2,30.13,South,173,10.0,15.0,83,0.00,,,0.00,Wunderground v.1.15,2013-02-06 16:27:00,
2013-02-06 10:29:00,34.9,30.6,30.13,South,174,10.0,15.0,84,0.00,,,0.00,Wunderground v.1.15,2013-02-06 16:29:00,
2013-02-06 10:30:00,35.0,30.9,30.13,South,169,10.0,10.0,85,0.00,,,0.00,Wunderground v.1.15,2013-02-06 16:30:00,
2013-02-06 10:35:00,35.3,30.9,30.13,South,170,10.0,11.0,84,0.00,,,0.00,Wunderground v.1.15,2013-02-06 16:35:00,
2013-02-06 10:36:00,35.4,31.0,30.13,South,180,9.0,11.0,84,0.00,,,0.00,Wunderground v.1.15,2013-02-06 16:36:00,
2013-02-06 10:37:00,35.4,30.8,30.13,South,175,9.0,11.0,83,0.00,,,0.00,Wunderground v.1.15,2013-02-06 16:37:00,
2013-02-06 10:41:00,35.4,30.1,30.13,SSE,168,11.0,17.0,81,0.00,,,0.00,Wunderground v.1.15,2013-02-06 16:41:00,
2013-02-06 10:43:00,35.5,30.8,30.13,South,171,11.0,17.0,83,0.00,,,0.00,Wunderground v.1.15,2013-02-06 16:43:00,
2013-02-06 10:45:00,35.5,30.5,30.13,South,171,12.0,17.0,82,0.00,,,0.00,Wunderground v.1.15,2013-02-06 16:45:00,
2013-02-06 10:46:00,35.6,31.2,30.13,South,175,12.0,17.0,84,0.00,,,0.00,Wunderground v.1.15,2013-02-06 16:46:00,
2013-02-06 10:49:00,35.7,31.0,30.13,South,175,11.0,17.0,83,0.00,,,0.00,Wunderground v.1.15,2013-02-06 16:49:00,
2013-02-06 10:51:00,35.9,31.5,30.13,South,185,11.0,11.0,84,0.00,,,0.00,Wunderground v.1.15,2013-02-06 16:51:00,
2013-02-06 10:52:00,36.0,31.6,30.13,South,175,11.0,12.0,84,0.00,,,0.00,Wunderground v.1.15,2013-02-06 16:52:00,
2013-02-06 10:56:00,36.1,31.1,30.13,South,180,11.0,14.0,82,0.00,,,0.00,Wunderground v.1.15,2013-02-06 16:56:00,
2013-02-06 10:58:00,36.2,31.2,30.13,SSE,167,11.0,14.0,82,0.00,,,0.00,Wunderground v.1.15,2013-02-06 16:58:00,
2013-02-06 10:59:00,36.2,31.2,30.13,South,172,11.0,14.0,82,0.00,,,0.00,Wunderground v.1.15,2013-02-06 16:59:00,
2013-02-06 11:00:00,36.3,31.3,30.13,South,175,11.0,11.0,82,0.00,,,0.00,Wunderground v.1.15,2013-02-06 17:00:00,
2013-02-06 11:02:00,36.5,31.5,30.13,SSW,200,11.0,14.0,82,0.00,,,0.00,Wunderground v.1.15,2013-02-06 17:02:00,
2013-02-06 11:05:00,36.6,31.3,30.13,SSW,209,11.0,15.0,81,0.00,,,0.00,Wunderground v.1.15,2013-02-06 17:05:00,
2013-02-06 11:06:00,36.6,31.6,30.13,South,186,11.0,15.0,82,0.00,,,0.00,Wunderground v.1.15,2013-02-06 17:06:00,
2013-02-06 11:07:00,36.6,31.6,30.12,SSW,200,11.0,15.0,82,0.00,,,0.00,Wunderground v.1.15,2013-02-06 17:07:00,
2013-02-06 11:12:00,36.8,31.2,30.13,SW,221,12.0,18.0,80,0.00,,,0.00,Wunderground v.1.15,2013-02-06 17:12:00,
2013-02-06 11:13:00,36.7,31.1,30.13,SW,218,12.0,18.0,80,0.00,,,0.00,Wunderground v.1.15,2013-02-06 17:13:00,
2013-02-06 11:14:00,36.7,31.1,30.13,SW,229,12.0,19.0,80,0.00,,,0.00,Wunderground v.1.15,2013-02-06 17:14:00,
2013-02-06 11:15:00,36.7,31.1,30.12,SSW,210,13.0,19.0,80,0.00,,,0.00,Wunderground v.1.15,2013-02-06 17:15:00,
2013-02-06 11:20:00,36.9,31.3,30.12,SSW,194,14.0,14.0,80,0.00,,,0.00,Wunderground v.1.15,2013-02-06 17:20:00,
2013-02-06 11:21:00,36.9,31.3,30.12,South,190,14.0,14.0,80,0.00,,,0.00,Wunderground v.1.15,2013-02-06 17:21:00,
2013-02-06 11:24:00,37.0,31.7,30.12,South,172,12.0,14.0,81,0.00,,,0.00,Wunderground v.1.15,2013-02-06 17:24:00,
2013-02-06 11:26:00,37.2,31.9,30.12,SSW,194,11.0,14.0,81,0.00,,,0.00,Wunderground v.1.15,2013-02-06 17:26:00,
2013-02-06 11:30:00,37.2,31.3,30.11,SSE,161,11.0,11.0,79,0.00,,,0.00,Wunderground v.1.15,2013-02-06 17:30:00,
2013-02-06 11:31:00,37.2,31.9,30.12,SSE,167,10.0,11.0,81,0.00,,,0.00,Wunderground v.1.15,2013-02-06 17:31:00,
2013-02-06 11:33:00,37.2,31.9,30.11,SSE,167,11.0,11.0,81,0.00,,,0.00,Wunderground v.1.15,2013-02-06 17:33:00,
2013-02-06 11:36:00,37.3,31.7,30.11,SSE,167,10.0,11.0,80,0.00,,,0.00,Wunderground v.1.15,2013-02-06 17:36:00,
2013-02-06 11:39:00,37.4,31.8,30.11,SSW,209,9.0,11.0,80,0.00,,,0.00,Wunderground v.1.15,2013-02-06 17:39:00,
2013-02-06 11:41:00,37.5,31.9,30.11,SSW,209,8.0,9.0,80,0.00,,,0.00,Wunderground v.1.15,2013-02-06 17:41:00,
2013-02-06 11:43:00,37.5,31.9,30.11,South,169,8.0,9.0,80,0.00,,,0.00,Wunderground v.1.15,2013-02-06 17:43:00,
2013-02-06 11:46:00,37.6,32.3,30.11,South,169,8.0,10.0,81,0.00,,,0.00,Wunderground v.1.15,2013-02-06 17:46:00,
2013-02-06 11:48:00,37.8,32.5,30.11,SSE,167,8.0,10.0,81,0.00,,,0.00,Wunderground v.1.15,2013-02-06 17:48:00,
2013-02-06 11:49:00,37.8,32.5,30.11,SSE,167,8.0,10.0,81,0.00,,,0.00,Wunderground v.1.15,2013-02-06 17:49:00,
2013-02-06 11:52:00,37.8,31.9,30.11,South,174,8.0,11.0,79,0.00,,,0.00,Wunderground v.1.15,2013-02-06 17:52:00,
2013-02-06 11:56:00,38.0,32.4,30.11,SW,221,9.0,13.0,80,0.00,,,0.00,Wunderground v.1.15,2013-02-06 17:56:00,
2013-02-06 11:58:00,38.0,32.4,30.11,SSW,202,10.0,13.0,80,0.00,,,0.00,Wunderground v.1.15,2013-02-06 17:58:00,
2013-02-06 11:59:00,38.1,32.5,30.11,SSW,202,10.0,13.0,80,0.00,,,0.00,Wunderground v.1.15,2013-02-06 17:59:00,
2013-02-06 12:02:00,38.0,32.4,30.11,SSW,211,10.0,11.0,80,0.00,,,0.00,Wunderground v.1.15,2013-02-06 18:02:00,
2013-02-06 12:03:00,38.0,32.1,30.11,SW,223,11.0,12.0,79,0.00,,,0.00,Wunderground v.1.15,2013-02-06 18:03:00,
2013-02-06 12:04:00,38.0,32.1,30.11,SW,225,11.0,12.0,79,0.00,,,0.00,Wunderground v.1.15,2013-02-06 18:04:00,
2013-02-06 12:05:00,38.0,32.4,30.11,SW,223,11.0,12.0,80,0.00,,,0.00,Wunderground v.1.15,2013-02-06 18:05:00,
2013-02-06 12:07:00,38.1,32.5,30.11,SSW,192,11.0,12.0,80,0.00,,,0.00,Wunderground v.1.15,2013-02-06 18:07:00,
2013-02-06 12:11:00,38.4,32.8,30.11,South,188,9.0,10.0,80,0.00,,,0.00,Wunderground v.1.15,2013-02-06 18:11:00,
2013-02-06 12:13:00,38.4,32.8,30.11,SSE,167,9.0,10.0,80,0.00,,,0.00,Wunderground v.1.15,2013-02-06 18:13:00,
2013-02-06 12:14:00,38.4,32.5,30.11,SSE,162,9.0,10.0,79,0.00,,,0.00,Wunderground v.1.15,2013-02-06 18:14:00,
2013-02-06 12:18:00,38.7,33.1,30.10,South,171,8.0,11.0,80,0.00,,,0.00,Wunderground v.1.15,2013-02-06 18:18:00,
2013-02-06 12:19:00,38.7,32.7,30.10,SSE,160,8.0,11.0,79,0.00,,,0.00,Wunderground v.1.15,2013-02-06 18:19:00,
2013-02-06 12:21:00,38.8,32.8,30.10,SSW,204,8.0,8.0,79,0.00,,,0.00,Wunderground v.1.15,2013-02-06 18:21:00,
2013-02-06 12:24:00,38.9,32.9,30.10,SSE,155,8.0,12.0,79,0.00,,,0.00,Wunderground v.1.15,2013-02-06 18:24:00,
2013-02-06 12:25:00,39.0,33.4,30.10,SSE,157,8.0,12.0,80,0.00,,,0.00,Wunderground v.1.15,2013-02-06 18:25:00,
2013-02-06 12:27:00,39.1,33.8,30.10,SSE,153,8.0,12.0,81,0.00,,,0.00,Wunderground v.1.15,2013-02-06 18:27:00,
2013-02-06 12:29:00,39.3,33.6,30.10,South,173,8.0,12.0,80,0.00,,,0.00,Wunderground v.1.15,2013-02-06 18:29:00,
2013-02-06 12:30:00,39.4,34.1,30.10,SSW,192,8.0,10.0,81,0.00,,,0.00,Wunderground v.1.15,2013-02-06 18:30:00,
2013-02-06 12:32:00,39.4,33.4,30.10,SSW,205,8.0,10.0,79,0.00,,,0.00,Wunderground v.1.15,2013-02-06 18:32:00,
2013-02-06 12:35:00,39.4,32.8,30.10,South,173,7.0,10.0,77,0.00,,,0.00,Wunderground v.1.15,2013-02-06 18:35:00,
2013-02-06 12:40:00,39.7,33.7,30.09,SSE,158,6.0,9.0,79,0.00,,,0.00,Wunderground v.1.15,2013-02-06 18:40:00,
2013-02-06 12:41:00,39.7,33.7,30.10,South,170,6.0,9.0,79,0.00,,,0.00,Wunderground v.1.15,2013-02-06 18:41:00,
2013-02-06 12:44:00,39.8,33.2,30.09,SSE,166,7.0,9.0,77,0.00,,,0.00,Wunderground v.1.15,2013-02-06 18:44:00,
2013-02-06 12:45:00,39.8,33.5,30.09,SSE,167,7.0,9.0,78,0.00,,,0.00,Wunderground v.1.15,2013-02-06 18:45:00,
2013-02-06 12:48:00,39.7,33.4,30.10,SSE,167,7.0,9.0,78,0.00,,,0.00,Wunderground v.1.15,2013-02-06 18:48:00,
2013-02-06 12:49:00,39.7,33.4,30.10,SSE,160,7.0,9.0,78,0.00,,,0.00,Wunderground v.1.15,2013-02-06 18:49:00,
2013-02-06 12:50:00,39.8,33.5,30.10,SSW,204,7.0,9.0,78,0.00,,,0.00,Wunderground v.1.15,2013-02-06 18:50:00,
2013-02-06 12:51:00,39.8,33.2,30.10,SSW,200,7.0,9.0,77,0.00,,,0.00,Wunderground v.1.15,2013-02-06 18:51:00,
2013-02-06 12:53:00,39.8,33.2,30.10,SSE,165,7.0,9.0,77,0.00,,,0.00,Wunderground v.1.15,2013-02-06 18:53:00,
2013-02-06 12:55:00,39.9,33.6,30.10,SSE,166,7.0,12.0,78,0.00,,,0.00,Wunderground v.1.15,2013-02-06 18:55:00,
2013-02-06 12:58:00,39.9,33.6,30.10,SSE,160,9.0,12.0,78,0.00,,,0.00,Wunderground v.1.15,2013-02-06 18:58:00,
2013-02-06 13:02:00,40.1,34.1,30.09,SSE,166,9.0,12.0,79,0.00,,,0.00,Wunderground v.1.15,2013-02-06 19:02:00,
2013-02-06 13:04:00,40.3,34.6,30.09,SSE,165,9.0,12.0,80,0.00,,,0.00,Wunderground v.1.15,2013-02-06 19:04:00,
2013-02-06 13:07:00,40.3,34.3,30.09,SSE,148,9.0,14.0,79,0.00,,,0.00,Wunderground v.1.15,2013-02-06 19:07:00,
2013-02-06 13:08:00,40.4,34.4,30.09,SSE,166,9.0,14.0,79,0.00,,,0.00,Wunderground v.1.15,2013-02-06 19:08:00,
2013-02-06 13:10:00,40.3,34.0,30.09,SSE,166,10.0,10.0,78,0.00,,,0.00,Wunderground v.1.15,2013-02-06 19:10:00,
2013-02-06 13:13:00,40.4,34.4,30.09,SSE,162,10.0,13.0,79,0.00,,,0.00,Wunderground v.1.15,2013-02-06 19:13:00,
2013-02-06 13:14:00,40.4,34.4,30.10,South,184,11.0,13.0,79,0.00,,,0.00,Wunderground v.1.15,2013-02-06 19:14:00,
2013-02-06 13:16:00,40.5,33.9,30.10,South,186,10.0,13.0,77,0.00,,,0.00,Wunderground v.1.15,2013-02-06 19:16:00,
2013-02-06 13:19:00,40.4,33.8,30.09,SSE,167,10.0,15.0,77,0.00,,,0.00,Wunderground v.1.15,2013-02-06 19:19:00,
2013-02-06 13:20:00,40.4,33.8,30.09,SSE,159,10.0,11.0,77,0.00,,,0.00,Wunderground v.1.15,2013-02-06 19:20:00,
2013-02-06 13:22:00,40.3,34.0,30.09,SSE,166,11.0,13.0,78,0.00,,,0.00,Wunderground v.1.15,2013-02-06 19:22:00,
2013-02-06 13:27:00,40.5,34.2,30.09,SSW,200,12.0,13.0,78,0.00,,,0.00,Wunderground v.1.15,2013-02-06 19:27:00,
2013-02-06 13:29:00,40.5,34.2,30.09,SSE,167,12.0,13.0,78,0.00,,,0.00,Wunderground v.1.15,2013-02-06 19:29:00,
2013-02-06 13:30:00,40.5,34.2,30.09,South,171,12.0,12.0,78,0.00,,,0.00,Wunderground v.1.15,2013-02-06 19:30:00,
2013-02-06 13:32:00,40.6,34.3,30.08,South,169,11.0,12.0,78,0.00,,,0.00,Wunderground v.1.15,2013-02-06 19:32:00,
2013-02-06 13:33:00,40.7,34.7,30.09,SSE,165,11.0,12.0,79,0.00,,,0.00,Wunderground v.1.15,2013-02-06 19:33:00,
2013-02-06 13:39:00,40.7,34.4,30.08,SSE,155,12.0,15.0,78,0.00,,,0.00,Wunderground v.1.15,2013-02-06 19:39:00,
2013-02-06 13:40:00,40.8,34.5,30.08,SSE,163,12.0,12.0,78,0.00,,,0.00,Wunderground v.1.15,2013-02-06 19:40:00,
2013-02-06 13:42:00,40.9,34.9,30.08,South,171,12.0,19.0,79,0.00,,,0.00,Wunderground v.1.15,2013-02-06 19:42:00,
2013-02-06 13:44:00,40.8,33.8,30.08,SSE,166,14.0,19.0,76,0.00,,,0.00,Wunderground v.1.15,2013-02-06 19:44:00,
2013-02-06 13:45:00,40.7,33.7,30.08,South,173,14.0,19.0,76,0.00,,,0.00,Wunderground v.1.15,2013-02-06 19:45:00,
2013-02-06 13:49:00,40.8,34.1,30.08,South,169,13.0,19.0,77,0.00,,,0.00,Wunderground v.1.15,2013-02-06 19:49:00,
2013-02-06 13:50:00,40.9,34.6,30.08,South,171,13.0,13.0,78,0.00,,,0.00,Wunderground v.1.15,2013-02-06 19:50:00,
2013-02-06 13:51:00,40.9,34.2,30.08,SSE,167,12.0,13.0,77,0.00,,,0.00,Wunderground v.1.15,2013-02-06 19:51:00,
2013-02-06 13:52:00,40.9,34.9,30.08,South,169,12.0,13.0,79,0.00,,,0.00,Wunderground v.1.15,2013-02-06 19:52:00,
2013-02-06 13:56:00,41.0,34.3,30.08,SSE,164,12.0,14.0,77,0.00,,,0.00,Wunderground v.1.15,2013-02-06 19:56:00,
2013-02-06 13:57:00,41.0,34.3,30.08,SSE,163,12.0,14.0,77,0.00,,,0.00,Wunderground v.1.15,2013-02-06 19:57:00,
2013-02-06 13:58:00,41.1,34.8,30.08,SSE,163,12.0,14.0,78,0.00,,,0.00,Wunderground v.1.15,2013-02-06 19:58:00,
2013-02-06 13:59:00,41.1,34.8,30.08,SSE,159,12.0,17.0,78,0.00,,,0.00,Wunderground v.1.15,2013-02-06 19:59:00,
2013-02-06 14:03:00,41.0,34.0,30.07,South,178,13.0,13.0,76,0.00,,,0.00,Wunderground v.1.15,2013-02-06 20:03:00,
2013-02-06 14:04:00,41.0,34.0,30.07,SSE,168,13.0,13.0,76,0.00,,,0.00,Wunderground v.1.15,2013-02-06 20:04:00,
2013-02-06 14:06:00,41.0,34.0,30.08,SSE,165,13.0,13.0,76,0.00,,,0.00,Wunderground v.1.15,2013-02-06 20:06:00,
2013-02-06 14:08:00,41.1,34.4,30.07,South,170,12.0,13.0,77,0.00,,,0.00,Wunderground v.1.15,2013-02-06 20:08:00,
2013-02-06 14:09:00,41.1,34.1,30.08,South,170,12.0,13.0,76,0.00,,,0.00,Wunderground v.1.15,2013-02-06 20:09:00,
2013-02-06 14:10:00,41.1,33.8,30.08,South,171,12.0,12.0,75,0.00,,,0.00,Wunderground v.1.15,2013-02-06 20:10:00,
2013-02-06 14:13:00,41.2,34.5,30.07,South,171,11.0,13.0,77,0.00,,,0.00,Wunderground v.1.15,2013-02-06 20:13:00,
2013-02-06 14:14:00,41.3,34.6,30.07,South,171,11.0,13.0,77,0.00,,,0.00,Wunderground v.1.15,2013-02-06 20:14:00,
2013-02-06 14:19:00,41.3,34.3,30.07,South,169,11.0,13.0,76,0.00,,,0.00,Wunderground v.1.15,2013-02-06 20:19:00,
2013-02-06 14:21:00,41.3,34.0,30.07,SSE,161,12.0,14.0,75,0.00,,,0.00,Wunderground v.1.15,2013-02-06 20:21:00,
2013-02-06 14:22:00,41.4,35.1,30.07,SSE,165,12.0,14.0,78,0.00,,,0.00,Wunderground v.1.15,2013-02-06 20:22:00,
2013-02-06 14:23:00,41.4,34.4,30.07,SSE,156,12.0,14.0,76,0.00,,,0.00,Wunderground v.1.15,2013-02-06 20:23:00,
2013-02-06 14:26:00,41.5,35.2,30.07,SSE,164,12.0,14.0,78,0.00,,,0.00,Wunderground v.1.15,2013-02-06 20:26:00,
2013-02-06 14:29:00,41.7,34.7,30.07,SSE,159,12.0,18.0,76,0.00,,,0.00,Wunderground v.1.15,2013-02-06 20:29:00,
2013-02-06 14:30:00,41.7,34.4,30.07,SSE,160,12.0,13.0,75,0.00,,,0.00,Wunderground v.1.15,2013-02-06 20:30:00,
2013-02-06 14:31:00,41.6,33.9,30.07,SSE,161,12.0,13.0,74,0.00,,,0.00,Wunderground v.1.15,2013-02-06 20:31:00,
2013-02-06 14:33:00,41.7,35.0,30.07,South,175,12.0,13.0,77,0.00,,,0.00,Wunderground v.1.15,2013-02-06 20:33:00,
2013-02-06 14:35:00,41.8,34.8,30.07,South,174,12.0,13.0,76,0.00,,,0.00,Wunderground v.1.15,2013-02-06 20:35:00,
2013-02-06 14:37:00,41.9,34.9,30.07,South,170,12.0,13.0,76,0.00,,,0.00,Wunderground v.1.15,2013-02-06 20:37:00,
2013-02-06 14:40:00,42.0,34.6,30.07,South,169,10.0,10.0,75,0.00,,,0.00,Wunderground v.1.15,2013-02-06 20:40:00,
2013-02-06 14:41:00,42.0,35.0,30.07,SSE,163,10.0,10.0,76,0.00,,,0.00,Wunderground v.1.15,2013-02-06 20:41:00,
2013-02-06 14:42:00,42.1,35.4,30.07,SSE,155,10.0,12.0,77,0.00,,,0.00,Wunderground v.1.15,2013-02-06 20:42:00,
2013-02-06 14:43:00,42.1,34.4,30.07,SSE,152,10.0,12.0,74,0.00,,,0.00,Wunderground v.1.15,2013-02-06 20:43:00,
2013-02-06 14:47:00,42.3,35.3,30.07,SSW,201,9.0,12.0,76,0.00,,,0.00,Wunderground v.1.15,2013-02-06 20:47:00,
2013-02-06 14:48:00,42.3,34.9,30.07,SSW,201,10.0,14.0,75,0.00,,,0.00,Wunderground v.1.15,2013-02-06 20:48:00,
2013-02-06 14:49:00,42.4,35.0,30.06,SSE,166,10.0,14.0,75,0.00,,,0.00,Wunderground v.1.15,2013-02-06 20:49:00,
2013-02-06 14:52:00,42.4,34.7,30.06,SSE,153,10.0,13.0,74,0.00,,,0.00,Wunderground v.1.15,2013-02-06 20:52:00,
2013-02-06 14:54:00,42.4,35.0,30.06,SE,145,11.0,14.0,75,0.00,,,0.00,Wunderground v.1.15,2013-02-06 20:54:00,
2013-02-06 14:55:00,42.4,35.0,30.06,SSE,159,11.0,14.0,75,0.00,,,0.00,Wunderground v.1.15,2013-02-06 20:55:00,
2013-02-06 15:00:00,42.4,35.0,30.06,SSE,155,13.0,14.0,75,0.00,,,0.00,Wunderground v.1.15,2013-02-06 21:00:00,
2013-02-06 15:01:00,42.5,35.5,30.06,SSE,161,13.0,14.0,76,0.00,,,0.00,Wunderground v.1.15,2013-02-06 21:01:00,
2013-02-06 15:03:00,42.5,34.8,30.06,SSE,160,13.0,14.0,74,0.00,,,0.00,Wunderground v.1.15,2013-02-06 21:03:00,
2013-02-06 15:06:00,42.4,34.4,30.05,South,171,13.0,17.0,73,0.00,,,0.00,Wunderground v.1.15,2013-02-06 21:06:00,
2013-02-06 15:07:00,42.4,34.7,30.05,SSE,161,13.0,17.0,74,0.00,,,0.00,Wunderground v.1.15,2013-02-06 21:07:00,
2013-02-06 15:09:00,42.4,35.0,30.05,SSE,167,13.0,17.0,75,0.00,,,0.00,Wunderground v.1.15,2013-02-06 21:09:00,
2013-02-06 15:12:00,42.3,34.3,30.05,South,169,13.0,15.0,73,0.00,,,0.00,Wunderground v.1.15,2013-02-06 21:12:00,
2013-02-06 15:13:00,42.3,34.3,30.05,South,170,13.0,15.0,73,0.00,,,0.00,Wunderground v.1.15,2013-02-06 21:13:00,
2013-02-06 15:18:00,42.1,35.1,30.05,SSE,161,12.0,15.0,76,0.00,,,0.00,Wunderground v.1.15,2013-02-06 21:18:00,
2013-02-06 15:19:00,42.0,35.0,30.05,SSE,153,12.0,15.0,76,0.00,,,0.00,Wunderground v.1.15,2013-02-06 21:19:00,
2013-02-06 15:20:00,42.0,34.6,30.05,SSE,154,12.0,12.0,75,0.00,,,0.00,Wunderground v.1.15,2013-02-06 21:20:00,
2013-02-06 15:21:00,42.0,34.3,30.05,SSE,163,11.0,12.0,74,0.00,,,0.00,Wunderground v.1.15,2013-02-06 21:21:00,
2013-02-06 15:25:00,41.9,34.6,30.05,SSE,158,11.0,14.0,75,0.00,,,0.00,Wunderground v.1.15,2013-02-06 21:25:00,
2013-02-06 15:26:00,41.9,34.2,30.04,SSE,159,11.0,14.0,74,0.00,,,0.00,Wunderground v.1.15,2013-02-06 21:26:00,
2013-02-06 15:27:00,41.9,34.6,30.04,SSE,161,12.0,14.0,75,0.00,,,0.00,Wunderground v.1.15,2013-02-06 21:27:00,
2013-02-06 15:29:00,41.9,34.2,30.04,SSE,155,12.0,14.0,74,0.00,,,0.00,Wunderground v.1.15,2013-02-06 21:29:00,
2013-02-06 15:32:00,41.9,34.2,30.04,SSE,161,12.0,12.0,74,0.00,,,0.00,Wunderground v.1.15,2013-02-06 21:32:00,
2013-02-06 15:35:00,42.0,34.3,30.04,SSE,165,11.0,12.0,74,0.00,,,0.00,Wunderground v.1.15,2013-02-06 21:35:00,
2013-02-06 15:37:00,42.0,34.3,30.04,SSE,155,11.0,12.0,74,0.00,,,0.00,Wunderground v.1.15,2013-02-06 21:37:00,
2013-02-06 15:38:00,42.0,34.3,30.03,SSE,156,11.0,12.0,74,0.00,,,0.00,Wunderground v.1.15,2013-02-06 21:38:00,
2013-02-06 15:40:00,42.0,35.0,30.03,SSE,151,10.0,12.0,76,0.00,,,0.00,Wunderground v.1.15,2013-02-06 21:40:00,
2013-02-06 15:43:00,41.9,34.6,30.03,SSE,154,11.0,13.0,75,0.00,,,0.00,Wunderground v.1.15,2013-02-06 21:43:00,
2013-02-06 15:45:00,41.9,34.9,30.03,SSE,152,11.0,13.0,76,0.00,,,0.00,Wunderground v.1.15,2013-02-06 21:45:00,
2013-02-06 15:46:00,41.8,35.1,30.03,SSE,151,10.0,13.0,77,0.00,,,0.00,Wunderground v.1.15,2013-02-06 21:46:00,
2013-02-06 15:47:00,41.8,35.1,30.03,SE,145,10.0,13.0,77,0.00,,,0.00,Wunderground v.1.15,2013-02-06 21:47:00,
2013-02-06 15:48:00,41.7,35.0,30.03,SSE,153,10.0,13.0,77,0.00,,,0.00,Wunderground v.1.15,2013-02-06 21:48:00,
2013-02-06 15:53:00,41.6,34.6,30.03,SSE,153,10.0,12.0,76,0.00,,,0.00,Wunderground v.1.15,2013-02-06 21:53:00,
2013-02-06 15:54:00,41.7,34.7,30.03,SSE,154,10.0,12.0,76,0.00,,,0.00,Wunderground v.1.15,2013-02-06 21:54:00,
2013-02-06 15:56:00,41.7,34.7,30.03,SSE,152,10.0,12.0,76,0.00,,,0.00,Wunderground v.1.15,2013-02-06 21:56:00,
2013-02-06 15:59:00,41.7,35.0,30.03,SSE,153,10.0,12.0,77,0.00,,,0.00,Wunderground v.1.15,2013-02-06 21:59:00,
2013-02-06 16:00:00,41.6,34.9,30.03,SSE,155,10.0,11.0,77,0.00,,,0.00,Wunderground v.1.15,2013-02-06 22:00:00,
2013-02-06 16:02:00,41.6,34.9,30.03,SSE,148,9.0,11.0,77,0.00,,,0.00,Wunderground v.1.15,2013-02-06 22:02:00,
2013-02-06 16:03:00,41.6,34.9,30.03,SE,142,9.0,13.0,77,0.00,,,0.00,Wunderground v.1.15,2013-02-06 22:03:00,
2013-02-06 16:06:00,41.5,34.8,30.02,SSE,153,9.0,13.0,77,0.00,,,0.00,Wunderground v.1.15,2013-02-06 22:06:00,
2013-02-06 16:08:00,41.6,34.9,30.03,SSE,153,9.0,13.0,77,0.00,,,0.00,Wunderground v.1.15,2013-02-06 22:08:00,
2013-02-06 16:11:00,41.6,34.9,30.03,SSE,153,8.0,8.0,77,0.00,,,0.00,Wunderground v.1.15,2013-02-06 22:11:00,
2013-02-06 16:13:00,41.7,34.7,30.02,SSE,150,9.0,11.0,76,0.00,,,0.00,Wunderground v.1.15,2013-02-06 22:13:00,
2013-02-06 16:16:00,41.8,34.8,30.02,SSE,151,9.0,12.0,76,0.00,,,0.00,Wunderground v.1.15,2013-02-06 22:16:00,
2013-02-06 16:17:00,41.8,34.8,30.02,SSE,155,9.0,12.0,76,0.00,,,0.00,Wunderground v.1.15,2013-02-06 22:17:00,
2013-02-06 16:18:00,41.8,34.8,30.02,SSE,156,10.0,12.0,76,0.00,,,0.00,Wunderground v.1.15,2013-02-06 22:18:00,
2013-02-06 16:21:00,41.9,35.2,30.02,SSE,150,10.0,10.0,77,0.00,,,0.00,Wunderground v.1.15,2013-02-06 22:21:00,
2013-02-06 16:22:00,41.8,35.1,30.02,SSE,151,10.0,10.0,77,0.00,,,0.00,Wunderground v.1.15,2013-02-06 22:22:00,
2013-02-06 16:23:00,41.9,35.2,30.02,SSE,156,10.0,11.0,77,0.00,,,0.00,Wunderground v.1.15,2013-02-06 22:23:00,
2013-02-06 16:24:00,41.8,34.8,30.02,SE,144,10.0,11.0,76,0.00,,,0.00,Wunderground v.1.15,2013-02-06 22:24:00,
2013-02-06 16:26:00,41.8,34.8,30.02,SE,138,9.0,11.0,76,0.00,,,0.00,Wunderground v.1.15,2013-02-06 22:26:00,
2013-02-06 16:27:00,41.8,34.5,30.02,SSE,152,9.0,11.0,75,0.00,,,0.00,Wunderground v.1.15,2013-02-06 22:27:00,
2013-02-06 16:29:00,41.8,34.8,30.01,SSE,162,10.0,11.0,76,0.00,,,0.00,Wunderground v.1.15,2013-02-06 22:29:00,
2013-02-06 16:33:00,41.6,34.6,30.01,SE,143,9.0,10.0,76,0.00,,,0.00,Wunderground v.1.15,2013-02-06 22:33:00,
2013-02-06 16:35:00,41.4,34.4,30.01,SE,142,9.0,10.0,76,0.00,,,0.00,Wunderground v.1.15,2013-02-06 22:35:00,
2013-02-06 16:36:00,41.3,34.3,30.01,SSE,153,9.0,10.0,76,0.00,,,0.00,Wunderground v.1.15,2013-02-06 22:36:00,
2013-02-06 16:37:00,41.3,34.6,30.01,SSE,153,8.0,10.0,77,0.00,,,0.00,Wunderground v.1.15,2013-02-06 22:37:00,
2013-02-06 16:42:00,40.8,34.5,30.02,SSE,152,7.0,7.0,78,0.00,,,0.00,Wunderground v.1.15,2013-02-06 22:42:00,
2013-02-06 16:43:00,40.7,34.4,30.01,SSE,152,6.0,7.0,78,0.00,,,0.00,Wunderground v.1.15,2013-02-06 22:43:00,
2013-02-06 16:45:00,40.6,34.3,30.01,SSE,152,6.0,7.0,78,0.00,,,0.00,Wunderground v.1.15,2013-02-06 22:45:00,
2013-02-06 16:48:00,40.4,34.1,30.01,SSE,150,6.0,7.0,78,0.00,,,0.00,Wunderground v.1.15,2013-02-06 22:48:00,
2013-02-06 16:50:00,40.4,34.1,30.01,SE,146,6.0,7.0,78,0.00,,,0.00,Wunderground v.1.15,2013-02-06 22:50:00,
2013-02-06 16:51:00,40.4,34.1,30.01,SE,146,6.0,7.0,78,0.00,,,0.00,Wunderground v.1.15,2013-02-06 22:51:00,
2013-02-06 16:53:00,40.4,34.1,30.01,SE,142,6.0,9.0,78,0.00,,,0.00,Wunderground v.1.15,2013-02-06 22:53:00,
2013-02-06 16:54:00,40.4,34.1,30.01,SE,142,6.0,9.0,78,0.00,,,0.00,Wunderground v.1.15,2013-02-06 22:54:00,
2013-02-06 16:59:00,40.3,34.0,30.01,SE,142,7.0,9.0,78,0.00,,,0.00,Wunderground v.1.15,2013-02-06 22:59:00,
2013-02-06 17:00:00,40.3,34.0,30.01,SE,142,7.0,7.0,78,0.00,,,0.00,Wunderground v.1.15,2013-02-06 23:00:00,
2013-02-06 17:02:00,40.3,34.0,30.01,SE,142,6.0,7.0,78,0.00,,,0.00,Wunderground v.1.15,2013-02-06 23:02:00,
2013-02-06 17:05:00,40.3,34.0,30.02,SE,142,5.0,7.0,78,0.00,,,0.00,Wunderground v.1.15,2013-02-06 23:05:00,
2013-02-06 17:06:00,40.2,33.9,30.01,SE,142,5.0,7.0,78,0.00,,,0.00,Wunderground v.1.15,2013-02-06 23:06:00,
2013-02-06 17:08:00,40.1,33.8,30.02,SE,142,5.0,7.0,78,0.00,,,0.00,Wunderground v.1.15,2013-02-06 23:08:00,
2013-02-06 17:09:00,40.1,33.8,30.01,SE,142,4.0,7.0,78,0.00,,,0.00,Wunderground v.1.15,2013-02-06 23:09:00,
2013-02-06 17:11:00,39.9,33.9,30.01,SE,142,4.0,5.0,79,0.00,,,0.00,Wunderground v.1.15,2013-02-06 23:11:00,
2013-02-06 17:15:00,39.5,33.5,30.01,ESE,122,5.0,6.0,79,0.00,,,0.00,Wunderground v.1.15,2013-02-06 23:15:00,
2013-02-06 17:17:00,39.4,33.7,30.01,ESE,121,5.0,6.0,80,0.00,,,0.00,Wunderground v.1.15,2013-02-06 23:17:00,
2013-02-06 17:18:00,39.3,33.6,30.01,ESE,121,5.0,6.0,80,0.00,,,0.00,Wunderground v.1.15,2013-02-06 23:18:00,
2013-02-06 17:19:00,39.2,33.5,30.01,ESE,121,5.0,6.0,80,0.00,,,0.00,Wunderground v.1.15,2013-02-06 23:19:00,
2013-02-06 17:21:00,39.0,33.7,30.01,ESE,121,6.0,6.0,81,0.00,,,0.00,Wunderground v.1.15,2013-02-06 23:21:00,
2013-02-06 17:22:00,38.9,33.6,30.01,ESE,123,5.0,6.0,81,0.00,,,0.00,Wunderground v.1.15,2013-02-06 23:22:00,
2013-02-06 17:26:00,38.5,33.2,30.02,SE,126,5.0,6.0,81,0.00,,,0.00,Wunderground v.1.15,2013-02-06 23:26:00,
2013-02-06 17:27:00,38.5,33.5,30.02,SE,126,5.0,6.0,82,0.00,,,0.00,Wunderground v.1.15,2013-02-06 23:27:00,
2013-02-06 17:32:00,38.2,33.2,30.02,SE,146,5.0,7.0,82,0.00,,,0.00,Wunderground v.1.15,2013-02-06 23:32:00,
2013-02-06 17:35:00,38.2,33.2,30.02,SSE,149,6.0,7.0,82,0.00,,,0.00,Wunderground v.1.15,2013-02-06 23:35:00,
2013-02-06 17:37:00,38.3,33.3,30.02,SSE,150,6.0,9.0,82,0.00,,,0.00,Wunderground v.1.15,2013-02-06 23:37:00,
2013-02-06 17:38:00,38.3,33.3,30.02,SSE,152,7.0,10.0,82,0.00,,,0.00,Wunderground v.1.15,2013-02-06 23:38:00,
2013-02-06 17:42:00,38.6,33.6,30.02,SSE,155,8.0,9.0,82,0.00,,,0.00,Wunderground v.1.15,2013-02-06 23:42:00,
2013-02-06 17:43:00,38.6,33.6,30.02,SSE,154,8.0,9.0,82,0.00,,,0.00,Wunderground v.1.15,2013-02-06 23:43:00,
2013-02-06 17:44:00,38.7,33.7,30.03,SSE,153,9.0,9.0,82,0.00,,,0.00,Wunderground v.1.15,2013-02-06 23:44:00,
2013-02-06 17:50:00,38.7,33.7,30.03,SSE,153,8.0,8.0,82,0.00,,,0.00,Wunderground v.1.15,2013-02-06 23:50:00,
2013-02-06 17:51:00,38.7,33.7,30.03,SSE,153,8.0,8.0,82,0.00,,,0.00,Wunderground v.1.15,2013-02-06 23:51:00,
2013-02-06 17:52:00,38.7,33.7,30.03,SSE,153,8.0,8.0,82,0.00,,,0.00,Wunderground v.1.15,2013-02-06 23:52:00,
2013-02-06 17:53:00,38.7,33.7,30.03,SSE,153,8.0,8.0,82,0.00,,,0.00,Wunderground v.1.15,2013-02-06 23:53:00,
2013-02-06 17:55:00,38.7,33.7,30.04,SSE,153,7.0,8.0,82,0.00,,,0.00,Wunderground v.1.15,2013-02-06 23:55:00,
2013-02-06 17:58:00,38.6,33.6,30.04,SSE,153,6.0,8.0,82,0.00,,,0.00,Wunderground v.1.15,2013-02-06 23:58:00,
2013-02-06 17:59:00,38.5,33.5,30.04,SSE,153,6.0,8.0,82,0.00,,,0.00,Wunderground v.1.15,2013-02-06 23:59:00,
2013-02-06 18:03:00,38.5,33.5,30.04,SSE,153,5.0,6.0,82,0.00,,,0.00,Wunderground v.1.15,2013-02-07 00:03:00,
2013-02-06 18:04:00,38.6,33.6,30.04,SSE,153,5.0,6.0,82,0.00,,,0.00,Wunderground v.1.15,2013-02-07 00:04:00,
2013-02-06 18:05:00,38.5,33.5,30.04,SSE,153,5.0,6.0,82,0.00,,,0.00,Wunderground v.1.15,2013-02-07 00:05:00,
2013-02-06 18:08:00,38.6,33.6,30.03,SSE,153,6.0,6.0,82,0.00,,,0.00,Wunderground v.1.15,2013-02-07 00:08:00,
2013-02-06 18:09:00,38.5,33.5,30.03,SSE,153,6.0,7.0,82,0.00,,,0.00,Wunderground v.1.15,2013-02-07 00:09:00,
2013-02-06 18:11:00,38.4,33.4,30.04,SSE,153,6.0,6.0,82,0.00,,,0.00,Wunderground v.1.15,2013-02-07 00:11:00,
2013-02-06 18:12:00,38.4,33.4,30.04,SSE,153,6.0,6.0,82,0.00,,,0.00,Wunderground v.1.15,2013-02-07 00:12:00,
2013-02-06 18:14:00,38.3,33.3,30.04,SSE,153,6.0,7.0,82,0.00,,,0.00,Wunderground v.1.15,2013-02-07 00:14:00,
2013-02-06 18:16:00,38.2,33.5,30.04,SSE,153,6.0,7.0,83,0.00,,,0.00,Wunderground v.1.15,2013-02-07 00:16:00,
2013-02-06 18:18:00,38.2,33.5,30.04,SSE,153,7.0,9.0,83,0.00,,,0.00,Wunderground v.1.15,2013-02-07 00:18:00,
2013-02-06 18:21:00,38.2,33.5,30.04,SSE,153,7.0,9.0,83,0.00,,,0.00,Wunderground v.1.15,2013-02-07 00:21:00,
2013-02-06 18:22:00,38.3,33.6,30.04,SSE,153,8.0,9.0,83,0.00,,,0.00,Wunderground v.1.15,2013-02-07 00:22:00,
2013-02-06 18:23:00,38.3,33.6,30.04,SSE,153,8.0,9.0,83,0.00,,,0.00,Wunderground v.1.15,2013-02-07 00:23:00,
2013-02-06 18:26:00,38.4,33.7,30.03,SSE,153,8.0,11.0,83,0.00,,,0.00,Wunderground v.1.15,2013-02-07 00:26:00,
2013-02-06 18:29:00,38.4,33.7,30.03,SSE,153,7.0,11.0,83,0.00,,,0.00,Wunderground v.1.15,2013-02-07 00:29:00,
2013-02-06 18:30:00,38.4,33.7,30.03,SSE,153,7.0,7.0,83,0.00,,,0.00,Wunderground v.1.15,2013-02-07 00:30:00,
2013-02-06 18:31:00,38.4,33.7,30.03,SSE,153,7.0,7.0,83,0.00,,,0.00,Wunderground v.1.15,2013-02-07 00:31:00,
2013-02-06 18:35:00,38.5,33.8,30.03,SSE,153,7.0,7.0,83,0.00,,,0.00,Wunderground v.1.15,2013-02-07 00:35:00,
2013-02-06 18:36:00,38.5,33.8,30.03,SSE,153,7.0,7.0,83,0.00,,,0.00,Wunderground v.1.15,2013-02-07 00:36:00,
2013-02-06 18:37:00,38.5,33.8,30.03,SSE,153,7.0,7.0,83,0.00,,,0.00,Wunderground v.1.15,2013-02-07 00:37:00,
2013-02-06 18:38:00,38.5,33.8,30.03,SSE,148,7.0,7.0,83,0.00,,,0.00,Wunderground v.1.15,2013-02-07 00:38:00,
2013-02-06 18:42:00,38.4,33.7,30.02,SE,141,8.0,10.0,83,0.00,,,0.00,Wunderground v.1.15,2013-02-07 00:42:00,
2013-02-06 18:44:00,38.5,33.8,30.02,SE,143,8.0,10.0,83,0.00,,,0.00,Wunderground v.1.15,2013-02-07 00:44:00,
2013-02-06 18:45:00,38.6,33.9,30.02,SE,142,8.0,10.0,83,0.00,,,0.00,Wunderground v.1.15,2013-02-07 00:45:00,
2013-02-06 18:49:00,38.8,34.1,30.02,SE,138,9.0,11.0,83,0.00,,,0.00,Wunderground v.1.15,2013-02-07 00:49:00,
2013-02-06 18:50:00,38.8,33.8,30.01,SE,138,9.0,9.0,82,0.00,,,0.00,Wunderground v.1.15,2013-02-07 00:50:00,
2013-02-06 18:51:00,38.8,33.8,30.02,SE,138,9.0,9.0,82,0.00,,,0.00,Wunderground v.1.15,2013-02-07 00:51:00,
2013-02-06 18:52:00,38.8,33.8,30.01,SE,143,9.0,9.0,82,0.00,,,0.00,Wunderground v.1.15,2013-02-07 00:52:00,
2013-02-06 18:54:00,38.8,33.8,30.01,SE,146,9.0,10.0,82,0.00,,,0.00,Wunderground v.1.15,2013-02-07 00:54:00,
2013-02-06 18:56:00,38.9,33.9,30.01,SE,143,9.0,10.0,82,0.00,,,0.00,Wunderground v.1.15,2013-02-07 00:56:00,
2013-02-06 18:57:00,38.9,33.9,30.01,SE,141,9.0,10.0,82,0.00,,,0.00,Wunderground v.1.15,2013-02-07 00:57:00,
2013-02-06 19:00:00,38.9,33.9,30.01,SE,137,9.0,11.0,82,0.00,,,0.00,Wunderground v.1.15,2013-02-07 01:00:00,
2013-02-06 19:01:00,38.9,33.9,30.00,SE,138,9.0,12.0,82,0.00,,,0.00,Wunderground v.1.15,2013-02-07 01:01:00,
2013-02-06 19:04:00,39.0,34.0,30.00,SE,134,10.0,13.0,82,0.00,,,0.00,Wunderground v.1.15,2013-02-07 01:04:00,
2013-02-06 19:05:00,39.1,34.1,30.00,SE,139,10.0,13.0,82,0.00,,,0.00,Wunderground v.1.15,2013-02-07 01:05:00,
2013-02-06 19:07:00,39.1,34.1,30.01,SE,142,11.0,13.0,82,0.00,,,0.00,Wunderground v.1.15,2013-02-07 01:07:00,
2013-02-06 19:11:00,39.0,34.0,30.01,SSE,153,11.0,11.0,82,0.00,,,0.00,Wunderground v.1.15,2013-02-07 01:11:00,
2013-02-06 19:12:00,39.0,34.0,30.01,SSE,152,11.0,11.0,82,0.00,,,0.00,Wunderground v.1.15,2013-02-07 01:12:00,
2013-02-06 19:14:00,38.9,33.9,30.01,SSE,151,10.0,11.0,82,0.00,,,0.00,Wunderground v.1.15,2013-02-07 01:14:00,
2013-02-06 19:17:00,38.7,34.0,30.01,SSE,154,10.0,11.0,83,0.00,,,0.00,Wunderground v.1.15,2013-02-07 01:17:00,
2013-02-06 19:19:00,38.6,33.9,30.01,SSE,155,10.0,11.0,83,0.00,,,0.00,Wunderground v.1.15,2013-02-07 01:19:00,
2013-02-06 19:20:00,38.6,33.9,30.01,SSE,155,11.0,13.0,83,0.00,,,0.00,Wunderground v.1.15,2013-02-07 01:20:00,
2013-02-06 19:22:00,38.6,33.9,30.01,SSE,155,11.0,13.0,83,0.00,,,0.00,Wunderground v.1.15,2013-02-07 01:22:00,
2013-02-06 19:23:00,38.7,34.0,30.01,SSE,157,11.0,13.0,83,0.00,,,0.00,Wunderground v.1.15,2013-02-07 01:23:00,
2013-02-06 19:25:00,38.7,34.0,30.01,SSE,155,11.0,13.0,83,0.00,,,0.00,Wunderground v.1.15,2013-02-07 01:25:00,
2013-02-06 19:26:00,38.7,34.0,30.01,SSE,150,12.0,13.0,83,0.00,,,0.00,Wunderground v.1.15,2013-02-07 01:26:00,
2013-02-06 19:27:00,38.7,34.0,30.01,SSE,158,12.0,13.0,83,0.00,,,0.00,Wunderground v.1.15,2013-02-07 01:27:00,
2013-02-06 19:32:00,38.9,33.9,30.01,SSE,153,12.0,14.0,82,0.00,,,0.00,Wunderground v.1.15,2013-02-07 01:32:00,
2013-02-06 19:33:00,38.9,33.9,30.01,SSE,157,12.0,14.0,82,0.00,,,0.00,Wunderground v.1.15,2013-02-07 01:33:00,
2013-02-06 19:34:00,38.9,33.9,30.01,SSE,150,12.0,14.0,82,0.00,,,0.00,Wunderground v.1.15,2013-02-07 01:34:00,
2013-02-06 19:35:00,38.9,33.9,30.01,SSE,156,12.0,16.0,82,0.00,,,0.00,Wunderground v.1.15,2013-02-07 01:35:00,
2013-02-06 19:38:00,39.0,33.7,30.02,SSE,160,13.0,16.0,81,0.00,,,0.00,Wunderground v.1.15,2013-02-07 01:38:00,
2013-02-06 19:39:00,39.1,33.8,30.02,SSE,157,13.0,16.0,81,0.00,,,0.00,Wunderground v.1.15,2013-02-07 01:39:00,
2013-02-06 19:40:00,39.1,33.8,30.02,SSE,159,13.0,13.0,81,0.00,,,0.00,Wunderground v.1.15,2013-02-07 01:40:00,
2013-02-06 19:45:00,39.1,33.8,30.02,SSE,158,13.0,14.0,81,0.00,,,0.00,Wunderground v.1.15,2013-02-07 01:45:00,
2013-02-06 19:47:00,39.1,33.8,30.01,SSE,164,13.0,14.0,81,0.00,,,0.00,Wunderground v.1.15,2013-02-07 01:47:00,
2013-02-06 19:48:00,39.0,33.7,30.01,SSE,156,13.0,14.0,81,0.00,,,0.00,Wunderground v.1.15,2013-02-07 01:48:00,
2013-02-06 19:51:00,39.0,33.7,30.01,SSE,159,13.0,14.0,81,0.00,,,0.00,Wunderground v.1.15,2013-02-07 01:51:00,
2013-02-06 19:52:00,39.1,33.8,30.01,SSE,156,13.0,14.0,81,0.00,,,0.00,Wunderground v.1.15,2013-02-07 01:52:00,
2013-02-06 19:55:00,39.1,33.8,30.01,SSE,159,13.0,14.0,81,0.00,,,0.00,Wunderground v.1.15,2013-02-07 01:55:00,
2013-02-06 19:56:00,39.1,33.8,30.01,SSE,164,13.0,14.0,81,0.00,,,0.00,Wunderground v.1.15,2013-02-07 01:56:00,
2013-02-06 19:58:00,39.0,33.7,30.01,SSE,148,13.0,15.0,81,0.00,,,0.00,Wunderground v.1.15,2013-02-07 01:58:00,
2013-02-06 20:00:00,39.1,33.8,30.01,SSE,154,13.0,13.0,81,0.00,,,0.00,Wunderground v.1.15,2013-02-07 02:00:00,
2013-02-06 20:03:00,38.9,33.6,30.01,SSE,153,13.0,17.0,81,0.00,,,0.00,Wunderground v.1.15,2013-02-07 02:03:00,
2013-02-06 20:04:00,38.9,33.6,30.00,SSE,157,13.0,17.0,81,0.00,,,0.00,Wunderground v.1.15,2013-02-07 02:04:00,
2013-02-06 20:05:00,39.0,33.7,30.00,SSE,159,13.0,17.0,81,0.00,,,0.00,Wunderground v.1.15,2013-02-07 02:05:00,
2013-02-06 20:09:00,38.9,33.6,30.00,SSE,156,14.0,17.0,81,0.00,,,0.00,Wunderground v.1.15,2013-02-07 02:09:00,
2013-02-06 20:10:00,38.9,33.6,30.00,SSE,155,14.0,19.0,81,0.00,,,0.00,Wunderground v.1.15,2013-02-07 02:10:00,
2013-02-06 20:11:00,38.9,33.6,30.01,SSE,155,14.0,19.0,81,0.00,,,0.00,Wunderground v.1.15,2013-02-07 02:11:00,
2013-02-06 20:13:00,38.9,33.6,30.00,SSE,158,14.0,19.0,81,0.00,,,0.00,Wunderground v.1.15,2013-02-07 02:13:00,
2013-02-06 20:18:00,38.8,33.8,30.00,SSE,159,14.0,19.0,82,0.00,,,0.00,Wunderground v.1.15,2013-02-07 02:18:00,
2013-02-06 20:19:00,38.7,33.4,30.00,SSE,155,14.0,19.0,81,0.00,,,0.00,Wunderground v.1.15,2013-02-07 02:19:00,
2013-02-06 20:20:00,38.7,33.7,30.01,SSE,157,14.0,14.0,82,0.00,,,0.00,Wunderground v.1.15,2013-02-07 02:20:00,
2013-02-06 20:21:00,38.7,33.4,30.00,SSE,155,14.0,18.0,81,0.00,,,0.00,Wunderground v.1.15,2013-02-07 02:21:00,
2013-02-06 20:27:00,38.7,33.4,30.01,SSE,158,14.0,18.0,81,0.00,,,0.00,Wunderground v.1.15,2013-02-07 02:27:00,
2013-02-06 20:29:00,38.6,33.6,30.00,SSE,155,14.0,18.0,82,0.00,,,0.00,Wunderground v.1.15,2013-02-07 02:29:00,
2013-02-06 20:33:00,38.6,33.6,30.00,SSE,159,14.0,19.0,82,0.00,,,0.00,Wunderground v.1.15,2013-02-07 02:33:00,
2013-02-06 20:34:00,38.5,33.5,30.00,SSE,151,14.0,19.0,82,0.00,,,0.00,Wunderground v.1.15,2013-02-07 02:34:00,
2013-02-06 20:35:00,38.4,33.4,30.00,SE,143,14.0,19.0,82,0.00,,,0.00,Wunderground v.1.15,2013-02-07 02:35:00,
2013-02-06 20:36:00,38.3,33.3,30.00,SSE,157,14.0,19.0,82,0.00,,,0.00,Wunderground v.1.15,2013-02-07 02:36:00,
2013-02-06 20:41:00,38.1,33.1,30.00,SSE,153,14.0,14.0,82,0.00,,,0.00,Wunderground v.1.15,2013-02-07 02:41:00,
2013-02-06 20:42:00,38.1,33.1,30.00,SSE,153,13.0,14.0,82,0.00,,,0.00,Wunderground v.1.15,2013-02-07 02:42:00,
2013-02-06 20:43:00,38.0,33.0,30.00,SSE,153,13.0,14.0,82,0.00,,,0.00,Wunderground v.1.15,2013-02-07 02:43:00,
2013-02-06 20:46:00,37.7,33.0,29.99,SE,145,12.0,14.0,83,0.00,,,0.00,Wunderground v.1.15,2013-02-07 02:46:00,
2013-02-06 20:47:00,37.6,32.9,30.00,SE,146,12.0,14.0,83,0.00,,,0.00,Wunderground v.1.15,2013-02-07 02:47:00,
2013-02-06 20:49:00,37.4,32.7,29.99,SSE,163,12.0,14.0,83,0.00,,,0.00,Wunderground v.1.15,2013-02-07 02:49:00,
2013-02-06 20:52:00,37.2,32.8,29.99,SE,136,11.0,15.0,84,0.00,,,0.00,Wunderground v.1.15,2013-02-07 02:52:00,
2013-02-06 20:53:00,37.1,32.7,29.99,SSE,159,11.0,15.0,84,0.00,,,0.00,Wunderground v.1.15,2013-02-07 02:53:00,
2013-02-06 20:57:00,36.9,32.5,29.99,SSE,155,11.0,15.0,84,0.00,,,0.00,Wunderground v.1.15,2013-02-07 02:57:00,
2013-02-06 20:59:00,36.7,32.3,29.99,SE,144,11.0,15.0,84,0.00,,,0.00,Wunderground v.1.15,2013-02-07 02:59:00,
2013-02-06 21:02:00,36.5,32.1,29.99,SE,143,11.0,12.0,84,0.00,,,0.00,Wunderground v.1.15,2013-02-07 03:02:00,
2013-02-06 21:06:00,36.4,32.3,29.99,SSE,150,11.0,12.0,85,0.00,,,0.00,Wunderground v.1.15,2013-02-07 03:06:00,
2013-02-06 21:08:00,36.3,32.2,30.00,SSE,153,11.0,12.0,85,0.00,,,0.00,Wunderground v.1.15,2013-02-07 03:08:00,
2013-02-06 21:12:00,36.1,32.0,30.00,SSE,154,10.0,11.0,85,0.00,,,0.00,Wunderground v.1.15,2013-02-07 03:12:00,
2013-02-06 21:13:00,36.0,31.9,30.00,SSE,154,10.0,11.0,85,0.00,,,0.00,Wunderground v.1.15,2013-02-07 03:13:00,
2013-02-06 21:14:00,36.0,31.9,30.00,SSE,151,10.0,11.0,85,0.00,,,0.00,Wunderground v.1.15,2013-02-07 03:14:00,
2013-02-06 21:16:00,36.0,31.9,30.00,SSE,155,10.0,12.0,85,0.00,,,0.00,Wunderground v.1.15,2013-02-07 03:16:00,
2013-02-06 21:19:00,35.9,32.1,30.00,SSE,155,10.0,12.0,86,0.00,,,0.00,Wunderground v.1.15,2013-02-07 03:19:00,
2013-02-06 21:21:00,35.9,32.1,30.00,SSE,157,10.0,11.0,86,0.00,,,0.00,Wunderground v.1.15,2013-02-07 03:21:00,
2013-02-06 21:24:00,35.8,32.0,30.00,SSE,156,10.0,11.0,86,0.00,,,0.00,Wunderground v.1.15,2013-02-07 03:24:00,
2013-02-06 21:27:00,35.8,32.0,30.00,SSE,155,10.0,11.0,86,0.00,,,0.00,Wunderground v.1.15,2013-02-07 03:27:00,
2013-02-06 21:29:00,35.8,32.0,30.00,SSE,152,10.0,11.0,86,0.00,,,0.00,Wunderground v.1.15,2013-02-07 03:29:00,
2013-02-06 21:30:00,35.9,32.1,30.00,SSE,153,10.0,11.0,86,0.00,,,0.00,Wunderground v.1.15,2013-02-07 03:30:00,
2013-02-06 21:35:00,35.8,32.0,30.00,SSE,155,10.0,12.0,86,0.00,,,0.00,Wunderground v.1.15,2013-02-07 03:35:00,
2013-02-06 21:36:00,35.8,32.3,30.00,SSE,153,10.0,12.0,87,0.00,,,0.00,Wunderground v.1.15,2013-02-07 03:36:00,
2013-02-06 21:37:00,35.9,32.1,30.00,SSE,153,10.0,12.0,86,0.00,,,0.00,Wunderground v.1.15,2013-02-07 03:37:00,
2013-02-06 21:38:00,36.0,32.2,30.00,SSE,155,11.0,12.0,86,0.00,,,0.00,Wunderground v.1.15,2013-02-07 03:38:00,
2013-02-06 21:42:00,36.1,32.3,30.00,SSE,157,11.0,13.0,86,0.00,,,0.00,Wunderground v.1.15,2013-02-07 03:42:00,
2013-02-06 21:44:00,36.2,32.4,30.00,SSE,156,12.0,13.0,86,0.00,,,0.00,Wunderground v.1.15,2013-02-07 03:44:00,
2013-02-06 21:48:00,36.2,32.4,30.00,SSE,155,12.0,15.0,86,0.00,,,0.00,Wunderground v.1.15,2013-02-07 03:48:00,
2013-02-06 21:49:00,36.2,32.4,30.00,SSE,156,13.0,15.0,86,0.00,,,0.00,Wunderground v.1.15,2013-02-07 03:49:00,
2013-02-06 21:53:00,36.3,32.5,30.01,SSE,163,13.0,14.0,86,0.00,,,0.00,Wunderground v.1.15,2013-02-07 03:53:00,
2013-02-06 21:54:00,36.4,32.3,30.01,SSE,158,14.0,14.0,85,0.00,,,0.00,Wunderground v.1.15,2013-02-07 03:54:00,
2013-02-06 21:55:00,36.4,32.3,30.01,SSE,155,14.0,15.0,85,0.00,,,0.00,Wunderground v.1.15,2013-02-07 03:55:00,
2013-02-06 22:00:00,36.5,32.4,30.00,SSE,158,15.0,15.0,85,0.00,,,0.00,Wunderground v.1.15,2013-02-07 04:00:00,
2013-02-06 22:01:00,36.5,32.4,30.00,SSE,149,15.0,15.0,85,0.00,,,0.00,Wunderground v.1.15,2013-02-07 04:01:00,
2013-02-06 22:02:00,36.5,32.4,30.00,SSE,158,15.0,15.0,85,0.00,,,0.00,Wunderground v.1.15,2013-02-07 04:02:00,
2013-02-06 22:03:00,36.5,32.4,30.00,SSE,157,14.0,15.0,85,0.00,,,0.00,Wunderground v.1.15,2013-02-07 04:03:00,
2013-02-06 22:05:00,36.4,32.3,30.00,SSE,150,14.0,16.0,85,0.00,,,0.00,Wunderground v.1.15,2013-02-07 04:05:00,
2013-02-06 22:08:00,36.4,32.3,30.00,SSE,155,14.0,17.0,85,0.00,,,0.00,Wunderground v.1.15,2013-02-07 04:08:00,
2013-02-06 22:09:00,36.3,32.2,30.00,SSE,156,14.0,17.0,85,0.00,,,0.00,Wunderground v.1.15,2013-02-07 04:09:00,
2013-02-06 22:11:00,36.3,32.2,30.00,SSE,158,14.0,17.0,85,0.00,,,0.00,Wunderground v.1.15,2013-02-07 04:11:00,
2013-02-06 22:17:00,36.2,32.4,29.99,SSE,157,15.0,17.0,86,0.00,,,0.00,Wunderground v.1.15,2013-02-07 04:17:00,
2013-02-06 22:21:00,36.2,32.4,29.99,SSE,159,15.0,16.0,86,0.00,,,0.00,Wunderground v.1.15,2013-02-07 04:21:00,
2013-02-06 22:22:00,36.2,32.1,29.99,SSE,157,15.0,19.0,85,0.00,,,0.00,Wunderground v.1.15,2013-02-07 04:22:00,
2013-02-06 22:24:00,36.2,32.1,29.99,SSE,154,15.0,19.0,85,0.00,,,0.00,Wunderground v.1.15,2013-02-07 04:24:00,
2013-02-06 22:25:00,36.2,32.4,29.98,SSE,153,15.0,19.0,86,0.00,,,0.00,Wunderground v.1.15,2013-02-07 04:25:00,
2013-02-06 22:26:00,36.1,32.3,29.98,SSE,157,16.0,19.0,86,0.00,,,0.00,Wunderground v.1.15,2013-02-07 04:26:00,
2013-02-06 22:27:00,36.1,32.3,29.98,SSE,154,15.0,19.0,86,0.00,,,0.00,Wunderground v.1.15,2013-02-07 04:27:00,
2013-02-06 22:30:00,36.1,32.3,29.99,SSE,159,16.0,20.0,86,0.00,,,0.00,Wunderground v.1.15,2013-02-07 04:30:00,
2013-02-06 22:32:00,36.2,32.4,29.99,SSE,157,16.0,21.0,86,0.00,,,0.00,Wunderground v.1.15,2013-02-07 04:32:00,
2013-02-06 22:37:00,36.3,32.2,29.98,SSE,160,18.0,22.0,85,0.00,,,0.00,Wunderground v.1.15,2013-02-07 04:37:00,
2013-02-06 22:39:00,36.2,32.1,29.98,SSE,150,19.0,22.0,85,0.00,,,0.00,Wunderground v.1.15,2013-02-07 04:39:00,
2013-02-06 22:40:00,36.2,32.1,29.98,SSE,159,19.0,19.0,85,0.00,,,0.00,Wunderground v.1.15,2013-02-07 04:40:00,
2013-02-06 22:42:00,36.2,32.1,29.98,SSE,157,19.0,23.0,85,0.00,,,0.00,Wunderground v.1.15,2013-02-07 04:42:00,
2013-02-06 22:43:00,36.3,32.2,29.98,SSE,156,19.0,23.0,85,0.00,,,0.00,Wunderground v.1.15,2013-02-07 04:43:00,
2013-02-06 22:45:00,36.2,32.1,29.98,SSE,160,19.0,23.0,85,0.00,,,0.00,Wunderground v.1.15,2013-02-07 04:45:00,
2013-02-06 22:49:00,36.0,32.2,29.98,SSE,152,18.0,23.0,86,0.00,,,0.00,Wunderground v.1.15,2013-02-07 04:49:00,
2013-02-06 22:50:00,36.0,32.2,29.98,SSE,153,18.0,18.0,86,0.00,,,0.00,Wunderground v.1.15,2013-02-07 04:50:00,
2013-02-06 22:51:00,36.0,32.2,29.98,SSE,157,18.0,19.0,86,0.00,,,0.00,Wunderground v.1.15,2013-02-07 04:51:00,
2013-02-06 22:54:00,35.9,32.1,29.98,SSE,153,17.0,21.0,86,0.00,,,0.00,Wunderground v.1.15,2013-02-07 04:54:00,
2013-02-06 22:55:00,35.9,32.1,29.98,SSE,150,18.0,21.0,86,0.00,,,0.00,Wunderground v.1.15,2013-02-07 04:55:00,
2013-02-06 23:00:00,35.9,32.1,29.98,SSE,157,18.0,19.0,86,0.00,,,0.00,Wunderground v.1.15,2013-02-07 05:00:00,
2013-02-06 23:01:00,36.0,32.2,29.98,SSE,159,18.0,19.0,86,0.00,,,0.00,Wunderground v.1.15,2013-02-07 05:01:00,
2013-02-06 23:03:00,35.9,32.1,29.98,SSE,157,17.0,19.0,86,0.00,,,0.00,Wunderground v.1.15,2013-02-07 05:03:00,
2013-02-06 23:05:00,35.9,32.1,29.98,SSE,160,17.0,20.0,86,0.00,,,0.00,Wunderground v.1.15,2013-02-07 05:05:00,
2013-02-06 23:08:00,36.0,32.2,29.98,SSE,158,16.0,20.0,86,0.00,,,0.00,Wunderground v.1.15,2013-02-07 05:08:00,
2013-02-06 23:11:00,36.0,32.2,29.98,SSE,154,16.0,19.0,86,0.00,,,0.00,Wunderground v.1.15,2013-02-07 05:11:00,
2013-02-06 23:12:00,36.0,32.2,29.98,SSE,158,16.0,19.0,86,0.00,,,0.00,Wunderground v.1.15,2013-02-07 05:12:00,
2013-02-06 23:15:00,36.0,32.2,29.98,SSE,168,16.0,19.0,86,0.00,,,0.00,Wunderground v.1.15,2013-02-07 05:15:00,
2013-02-06 23:17:00,36.0,32.2,29.98,SSE,157,16.0,20.0,86,0.00,,,0.00,Wunderground v.1.15,2013-02-07 05:17:00,
2013-02-06 23:18:00,36.0,32.2,29.98,SSE,161,16.0,20.0,86,0.00,,,0.00,Wunderground v.1.15,2013-02-07 05:18:00,
2013-02-06 23:19:00,36.0,32.2,29.98,SSE,157,16.0,20.0,86,0.00,,,0.00,Wunderground v.1.15,2013-02-07 05:19:00,
2013-02-06 23:20:00,36.0,32.2,29.98,SSE,161,16.0,16.0,86,0.00,,,0.00,Wunderground v.1.15,2013-02-07 05:20:00,
2013-02-06 23:22:00,36.1,32.3,29.98,SSE,163,16.0,19.0,86,0.00,,,0.00,Wunderground v.1.15,2013-02-07 05:22:00,
2013-02-06 23:24:00,36.0,32.2,29.98,SSE,155,16.0,19.0,86,0.00,,,0.00,Wunderground v.1.15,2013-02-07 05:24:00,
2013-02-06 23:26:00,35.9,32.1,29.98,SSE,161,15.0,19.0,86,0.00,,,0.00,Wunderground v.1.15,2013-02-07 05:26:00,
2013-02-06 23:29:00,35.9,32.1,29.98,SSE,165,14.0,19.0,86,0.00,,,0.00,Wunderground v.1.15,2013-02-07 05:29:00,
2013-02-06 23:30:00,35.9,32.1,29.98,SSE,156,14.0,15.0,86,0.00,,,0.00,Wunderground v.1.15,2013-02-07 05:30:00,
2013-02-06 23:32:00,35.9,32.4,29.98,SSE,155,14.0,15.0,87,0.00,,,0.00,Wunderground v.1.15,2013-02-07 05:32:00,
2013-02-06 23:34:00,35.9,32.1,29.98,SSE,154,14.0,21.0,86,0.00,,,0.00,Wunderground v.1.15,2013-02-07 05:34:00,
2013-02-06 23:35:00,36.0,32.2,29.98,SSE,159,15.0,21.0,86,0.00,,,0.00,Wunderground v.1.15,2013-02-07 05:35:00,
2013-02-06 23:40:00,36.1,32.3,29.98,SSE,155,16.0,16.0,86,0.00,,,0.00,Wunderground v.1.15,2013-02-07 05:40:00,
2013-02-06 23:41:00,36.1,32.3,29.98,SSE,157,16.0,16.0,86,0.00,,,0.00,Wunderground v.1.15,2013-02-07 05:41:00,
2013-02-06 23:42:00,36.1,32.3,29.98,SSE,155,16.0,16.0,86,0.00,,,0.00,Wunderground v.1.15,2013-02-07 05:42:00,
2013-02-06 23:43:00,36.1,32.3,29.98,SSE,155,16.0,16.0,86,0.00,,,0.00,Wunderground v.1.15,2013-02-07 05:43:00,
2013-02-06 23:45:00,36.0,32.2,29.97,SSE,161,15.0,16.0,86,0.00,,,0.00,Wunderground v.1.15,2013-02-07 05:45:00,
2013-02-06 23:48:00,36.0,32.2,29.97,SSE,159,15.0,16.0,86,0.00,,,0.00,Wunderground v.1.15,2013-02-07 05:48:00,
2013-02-06 23:50:00,36.1,32.3,29.97,SSE,156,15.0,16.0,86,0.00,,,0.00,Wunderground v.1.15,2013-02-07 05:50:00,
2013-02-06 23:51:00,36.1,32.3,29.97,SSE,155,15.0,16.0,86,0.00,,,0.00,Wunderground v.1.15,2013-02-07 05:51:00,
2013-02-06 23:54:00,36.2,32.4,29.97,SSE,166,14.0,16.0,86,0.00,,,0.00,Wunderground v.1.15,2013-02-07 05:54:00,
2013-02-06 23:56:00,36.2,32.4,29.97,SSE,155,15.0,16.0,86,0.00,,,0.00,Wunderground v.1.15,2013-02-07 05:56:00,
2013-02-06 23:58:00,36.2,32.4,29.97,SSE,155,14.0,16.0,86,0.00,,,0.00,Wunderground v.1.15,2013-02-07 05:58:00,
2013-02-06 23:59:00,36.2,32.4,29.97,SSE,156,15.0,16.0,86,0.00,,,0.00,Wunderground v.1.15,2013-02-07 05:59:00,